<?xml version="1.0" encoding="UTF-8" standalone="no" ?>
<gpx xmlns="http://www.topografix.com/GPX/1/1" xmlns:xsi="http://www.w3.org/2001/XMLSchema-instance" xsi:schemaLocation="http://www.topografix.com/GPX/1/1 http://www.topografix.com/GPX/1/1/gpx.xsd" version="1.1" creator="VisuGPX - https://www.visugpx.com">
  <metadata>
    <name>Tête d\'Oriol</name>
    <desc><![CDATA[Tête d\'Oriol, depuis le Grand Villard, avec les randonneurs de l\'ASVEL Ski Montagne (69)]]></desc>
  </metadata>
  <trk>
    <name><![CDATA[Tête d'Oriol]]></name>
    <trkseg>
      <trkpt lat="44.72035" lon="5.88056">
        <ele>1211.788</ele>
        <time>2014-07-17T07:58:52Z</time>
      </trkpt>
      <trkpt lat="44.72042" lon="5.88034">
        <ele>1212.176</ele>
        <time>2014-07-17T07:59:11Z</time>
      </trkpt>
      <trkpt lat="44.7205" lon="5.88009">
        <ele>1214.963</ele>
        <time>2014-07-17T07:59:34Z</time>
      </trkpt>
      <trkpt lat="44.72068" lon="5.87994">
        <ele>1217.118</ele>
        <time>2014-07-17T08:00:05Z</time>
      </trkpt>
      <trkpt lat="44.72073" lon="5.87992">
        <ele>1217.881</ele>
        <time>2014-07-17T08:00:12Z</time>
      </trkpt>
      <trkpt lat="44.72085" lon="5.87982">
        <ele>1219.986</ele>
        <time>2014-07-17T08:00:28Z</time>
      </trkpt>
      <trkpt lat="44.72097" lon="5.87965">
        <ele>1223.438</ele>
        <time>2014-07-17T08:00:46Z</time>
      </trkpt>
      <trkpt lat="44.72105" lon="5.87956">
        <ele>1226.677</ele>
        <time>2014-07-17T08:01:01Z</time>
      </trkpt>
      <trkpt lat="44.7211" lon="5.87945">
        <ele>1229.702</ele>
        <time>2014-07-17T08:01:15Z</time>
      </trkpt>
      <trkpt lat="44.72114" lon="5.87934">
        <ele>1233.085</ele>
        <time>2014-07-17T08:01:30Z</time>
      </trkpt>
      <trkpt lat="44.72119" lon="5.87915">
        <ele>1236.262</ele>
        <time>2014-07-17T08:01:51Z</time>
      </trkpt>
      <trkpt lat="44.72128" lon="5.87897">
        <ele>1238.524</ele>
        <time>2014-07-17T08:02:11Z</time>
      </trkpt>
      <trkpt lat="44.72136" lon="5.8788">
        <ele>1241.575</ele>
        <time>2014-07-17T08:02:32Z</time>
      </trkpt>
      <trkpt lat="44.72143" lon="5.87862">
        <ele>1244.691</ele>
        <time>2014-07-17T08:02:50Z</time>
      </trkpt>
      <trkpt lat="44.72147" lon="5.87849">
        <ele>1246.197</ele>
        <time>2014-07-17T08:03:02Z</time>
      </trkpt>
      <trkpt lat="44.7215" lon="5.87844">
        <ele>1246.687</ele>
        <time>2014-07-17T08:03:08Z</time>
      </trkpt>
      <trkpt lat="44.72159" lon="5.87821">
        <ele>1249.638</ele>
        <time>2014-07-17T08:03:30Z</time>
      </trkpt>
      <trkpt lat="44.72166" lon="5.87807">
        <ele>1252.864</ele>
        <time>2014-07-17T08:03:45Z</time>
      </trkpt>
      <trkpt lat="44.72172" lon="5.87792">
        <ele>1256.014</ele>
        <time>2014-07-17T08:04:02Z</time>
      </trkpt>
      <trkpt lat="44.72176" lon="5.87777">
        <ele>1259.154</ele>
        <time>2014-07-17T08:04:21Z</time>
      </trkpt>
      <trkpt lat="44.72183" lon="5.8776">
        <ele>1261.971</ele>
        <time>2014-07-17T08:04:44Z</time>
      </trkpt>
      <trkpt lat="44.72189" lon="5.87746">
        <ele>1265.304</ele>
        <time>2014-07-17T08:05:02Z</time>
      </trkpt>
      <trkpt lat="44.72194" lon="5.8773">
        <ele>1268.149</ele>
        <time>2014-07-17T08:05:25Z</time>
      </trkpt>
      <trkpt lat="44.72195" lon="5.87722">
        <ele>1269.874</ele>
        <time>2014-07-17T08:05:49Z</time>
      </trkpt>
      <trkpt lat="44.722" lon="5.87706">
        <ele>1272.883</ele>
        <time>2014-07-17T08:06:05Z</time>
      </trkpt>
      <trkpt lat="44.72209" lon="5.87686">
        <ele>1276.198</ele>
        <time>2014-07-17T08:06:28Z</time>
      </trkpt>
      <trkpt lat="44.72224" lon="5.87661">
        <ele>1279.313</ele>
        <time>2014-07-17T08:06:53Z</time>
      </trkpt>
      <trkpt lat="44.72232" lon="5.87643">
        <ele>1282.014</ele>
        <time>2014-07-17T08:07:14Z</time>
      </trkpt>
      <trkpt lat="44.72236" lon="5.8763">
        <ele>1285.145</ele>
        <time>2014-07-17T08:07:29Z</time>
      </trkpt>
      <trkpt lat="44.72249" lon="5.87613">
        <ele>1287.478</ele>
        <time>2014-07-17T08:07:50Z</time>
      </trkpt>
      <trkpt lat="44.72258" lon="5.87608">
        <ele>1287.958</ele>
        <time>2014-07-17T08:08:09Z</time>
      </trkpt>
      <trkpt lat="44.72269" lon="5.8759">
        <ele>1291.378</ele>
        <time>2014-07-17T08:08:31Z</time>
      </trkpt>
      <trkpt lat="44.72276" lon="5.87574">
        <ele>1294.559</ele>
        <time>2014-07-17T08:08:48Z</time>
      </trkpt>
      <trkpt lat="44.72289" lon="5.87558">
        <ele>1297.616</ele>
        <time>2014-07-17T08:09:07Z</time>
      </trkpt>
      <trkpt lat="44.72303" lon="5.87537">
        <ele>1299.805</ele>
        <time>2014-07-17T08:09:31Z</time>
      </trkpt>
      <trkpt lat="44.72317" lon="5.87522">
        <ele>1302.815</ele>
        <time>2014-07-17T08:09:53Z</time>
      </trkpt>
      <trkpt lat="44.72332" lon="5.87513">
        <ele>1305.366</ele>
        <time>2014-07-17T08:10:14Z</time>
      </trkpt>
      <trkpt lat="44.72344" lon="5.87507">
        <ele>1306.833</ele>
        <time>2014-07-17T08:10:30Z</time>
      </trkpt>
      <trkpt lat="44.72349" lon="5.87504">
        <ele>1307.176</ele>
        <time>2014-07-17T08:10:36Z</time>
      </trkpt>
      <trkpt lat="44.72357" lon="5.87494">
        <ele>1311.096</ele>
        <time>2014-07-17T08:10:54Z</time>
      </trkpt>
      <trkpt lat="44.72368" lon="5.87483">
        <ele>1314.495</ele>
        <time>2014-07-17T08:11:13Z</time>
      </trkpt>
      <trkpt lat="44.7238" lon="5.8747">
        <ele>1316.517</ele>
        <time>2014-07-17T08:11:32Z</time>
      </trkpt>
      <trkpt lat="44.72399" lon="5.87459">
        <ele>1319.133</ele>
        <time>2014-07-17T08:11:55Z</time>
      </trkpt>
      <trkpt lat="44.7241" lon="5.87446">
        <ele>1320.896</ele>
        <time>2014-07-17T08:12:11Z</time>
      </trkpt>
      <trkpt lat="44.72423" lon="5.8743">
        <ele>1324.106</ele>
        <time>2014-07-17T08:12:32Z</time>
      </trkpt>
      <trkpt lat="44.72433" lon="5.87419">
        <ele>1327.125</ele>
        <time>2014-07-17T08:12:51Z</time>
      </trkpt>
      <trkpt lat="44.72442" lon="5.87409">
        <ele>1330.284</ele>
        <time>2014-07-17T08:13:12Z</time>
      </trkpt>
      <trkpt lat="44.72448" lon="5.87398">
        <ele>1333.666</ele>
        <time>2014-07-17T08:13:28Z</time>
      </trkpt>
      <trkpt lat="44.72456" lon="5.87387">
        <ele>1336.507</ele>
        <time>2014-07-17T08:13:47Z</time>
      </trkpt>
      <trkpt lat="44.72468" lon="5.87376">
        <ele>1339.618</ele>
        <time>2014-07-17T08:14:07Z</time>
      </trkpt>
      <trkpt lat="44.72476" lon="5.87366">
        <ele>1343.079</ele>
        <time>2014-07-17T08:14:24Z</time>
      </trkpt>
      <trkpt lat="44.72478" lon="5.87366">
        <ele>1343.151</ele>
        <time>2014-07-17T08:14:27Z</time>
      </trkpt>
      <trkpt lat="44.72493" lon="5.87357">
        <ele>1345.479</ele>
        <time>2014-07-17T08:14:48Z</time>
      </trkpt>
      <trkpt lat="44.72502" lon="5.87348">
        <ele>1348.536</ele>
        <time>2014-07-17T08:15:04Z</time>
      </trkpt>
      <trkpt lat="44.72508" lon="5.87338">
        <ele>1351.942</ele>
        <time>2014-07-17T08:15:21Z</time>
      </trkpt>
      <trkpt lat="44.72512" lon="5.87332">
        <ele>1353.598</ele>
        <time>2014-07-17T08:15:36Z</time>
      </trkpt>
      <trkpt lat="44.72521" lon="5.87321">
        <ele>1356.661</ele>
        <time>2014-07-17T08:16:22Z</time>
      </trkpt>
      <trkpt lat="44.72526" lon="5.87315">
        <ele>1358.032</ele>
        <time>2014-07-17T08:16:47Z</time>
      </trkpt>
      <trkpt lat="44.72533" lon="5.87299">
        <ele>1361.275</ele>
        <time>2014-07-17T08:17:04Z</time>
      </trkpt>
      <trkpt lat="44.72544" lon="5.87291">
        <ele>1364.185</ele>
        <time>2014-07-17T08:17:22Z</time>
      </trkpt>
      <trkpt lat="44.72551" lon="5.87282">
        <ele>1367.442</ele>
        <time>2014-07-17T08:17:38Z</time>
      </trkpt>
      <trkpt lat="44.7256" lon="5.87271">
        <ele>1370.907</ele>
        <time>2014-07-17T08:17:55Z</time>
      </trkpt>
      <trkpt lat="44.72566" lon="5.87259">
        <ele>1373.971</ele>
        <time>2014-07-17T08:18:10Z</time>
      </trkpt>
      <trkpt lat="44.72571" lon="5.87249">
        <ele>1376.166</ele>
        <time>2014-07-17T08:18:25Z</time>
      </trkpt>
      <trkpt lat="44.72574" lon="5.87234">
        <ele>1379.207</ele>
        <time>2014-07-17T08:18:41Z</time>
      </trkpt>
      <trkpt lat="44.72578" lon="5.87222">
        <ele>1381.618</ele>
        <time>2014-07-17T08:18:54Z</time>
      </trkpt>
      <trkpt lat="44.7258" lon="5.87217">
        <ele>1383.348</ele>
        <time>2014-07-17T08:19:02Z</time>
      </trkpt>
      <trkpt lat="44.72582" lon="5.87206">
        <ele>1385.655</ele>
        <time>2014-07-17T08:19:16Z</time>
      </trkpt>
      <trkpt lat="44.72587" lon="5.87199">
        <ele>1388.35</ele>
        <time>2014-07-17T08:19:30Z</time>
      </trkpt>
      <trkpt lat="44.72591" lon="5.87192">
        <ele>1390.366</ele>
        <time>2014-07-17T08:19:44Z</time>
      </trkpt>
      <trkpt lat="44.72598" lon="5.87189">
        <ele>1393.122</ele>
        <time>2014-07-17T08:19:59Z</time>
      </trkpt>
      <trkpt lat="44.72609" lon="5.87203">
        <ele>1395.992</ele>
        <time>2014-07-17T08:20:18Z</time>
      </trkpt>
      <trkpt lat="44.72611" lon="5.87209">
        <ele>1396.593</ele>
        <time>2014-07-17T08:20:23Z</time>
      </trkpt>
      <trkpt lat="44.72617" lon="5.87219">
        <ele>1398.773</ele>
        <time>2014-07-17T08:20:44Z</time>
      </trkpt>
      <trkpt lat="44.72618" lon="5.87222">
        <ele>1399.293</ele>
        <time>2014-07-17T08:21:22Z</time>
      </trkpt>
      <trkpt lat="44.72626" lon="5.87234">
        <ele>1400.634</ele>
        <time>2014-07-17T08:21:58Z</time>
      </trkpt>
      <trkpt lat="44.72637" lon="5.8725">
        <ele>1402.828</ele>
        <time>2014-07-17T08:22:15Z</time>
      </trkpt>
      <trkpt lat="44.72651" lon="5.87267">
        <ele>1404.819</ele>
        <time>2014-07-17T08:22:36Z</time>
      </trkpt>
      <trkpt lat="44.72648" lon="5.87278">
        <ele>1406.608</ele>
        <time>2014-07-17T08:22:53Z</time>
      </trkpt>
      <trkpt lat="44.7264" lon="5.87295">
        <ele>1408.51</ele>
        <time>2014-07-17T08:23:08Z</time>
      </trkpt>
      <trkpt lat="44.72642" lon="5.87305">
        <ele>1409.681</ele>
        <time>2014-07-17T08:23:21Z</time>
      </trkpt>
      <trkpt lat="44.72638" lon="5.87316">
        <ele>1409.933</ele>
        <time>2014-07-17T08:23:39Z</time>
      </trkpt>
      <trkpt lat="44.72636" lon="5.87333">
        <ele>1410.842</ele>
        <time>2014-07-17T08:23:54Z</time>
      </trkpt>
      <trkpt lat="44.72644" lon="5.87335">
        <ele>1413.167</ele>
        <time>2014-07-17T08:24:08Z</time>
      </trkpt>
      <trkpt lat="44.72646" lon="5.87337">
        <ele>1413.744</ele>
        <time>2014-07-17T08:24:11Z</time>
      </trkpt>
      <trkpt lat="44.72646" lon="5.8734">
        <ele>1413.681</ele>
        <time>2014-07-17T08:24:13Z</time>
      </trkpt>
      <trkpt lat="44.72651" lon="5.87354">
        <ele>1416.768</ele>
        <time>2014-07-17T08:24:28Z</time>
      </trkpt>
      <trkpt lat="44.72656" lon="5.87359">
        <ele>1418.419</ele>
        <time>2014-07-17T08:24:45Z</time>
      </trkpt>
      <trkpt lat="44.72664" lon="5.87355">
        <ele>1421.808</ele>
        <time>2014-07-17T08:25:02Z</time>
      </trkpt>
      <trkpt lat="44.72672" lon="5.87347">
        <ele>1423.032</ele>
        <time>2014-07-17T08:25:44Z</time>
      </trkpt>
      <trkpt lat="44.72681" lon="5.87343">
        <ele>1423.823</ele>
        <time>2014-07-17T08:25:58Z</time>
      </trkpt>
      <trkpt lat="44.72684" lon="5.87344">
        <ele>1424.562</ele>
        <time>2014-07-17T08:26:01Z</time>
      </trkpt>
      <trkpt lat="44.72696" lon="5.87347">
        <ele>1428.047</ele>
        <time>2014-07-17T08:26:16Z</time>
      </trkpt>
      <trkpt lat="44.72701" lon="5.87339">
        <ele>1429.019</ele>
        <time>2014-07-17T08:26:24Z</time>
      </trkpt>
      <trkpt lat="44.72716" lon="5.87322">
        <ele>1431.554</ele>
        <time>2014-07-17T08:26:44Z</time>
      </trkpt>
      <trkpt lat="44.72722" lon="5.87313">
        <ele>1432.773</ele>
        <time>2014-07-17T08:27:12Z</time>
      </trkpt>
      <trkpt lat="44.72739" lon="5.87322">
        <ele>1437.455</ele>
        <time>2014-07-17T08:27:50Z</time>
      </trkpt>
      <trkpt lat="44.72741" lon="5.87326">
        <ele>1440.612</ele>
        <time>2014-07-17T08:28:01Z</time>
      </trkpt>
      <trkpt lat="44.72742" lon="5.87329">
        <ele>1441.172</ele>
        <time>2014-07-17T08:28:16Z</time>
      </trkpt>
      <trkpt lat="44.72747" lon="5.87334">
        <ele>1441.461</ele>
        <time>2014-07-17T08:28:36Z</time>
      </trkpt>
      <trkpt lat="44.72759" lon="5.87344">
        <ele>1444.612</ele>
        <time>2014-07-17T08:28:54Z</time>
      </trkpt>
      <trkpt lat="44.72768" lon="5.87358">
        <ele>1447.071</ele>
        <time>2014-07-17T08:29:10Z</time>
      </trkpt>
      <trkpt lat="44.72774" lon="5.87378">
        <ele>1449.333</ele>
        <time>2014-07-17T08:29:30Z</time>
      </trkpt>
      <trkpt lat="44.72776" lon="5.87371">
        <ele>1449.988</ele>
        <time>2014-07-17T08:29:43Z</time>
      </trkpt>
      <trkpt lat="44.72779" lon="5.87358">
        <ele>1450.758</ele>
        <time>2014-07-17T08:30:01Z</time>
      </trkpt>
      <trkpt lat="44.7278" lon="5.87354">
        <ele>1450.598</ele>
        <time>2014-07-17T08:30:35Z</time>
      </trkpt>
      <trkpt lat="44.72784" lon="5.87325">
        <ele>1452.771</ele>
        <time>2014-07-17T08:30:54Z</time>
      </trkpt>
      <trkpt lat="44.72786" lon="5.87308">
        <ele>1454.76</ele>
        <time>2014-07-17T08:31:05Z</time>
      </trkpt>
      <trkpt lat="44.72791" lon="5.87274">
        <ele>1457.257</ele>
        <time>2014-07-17T08:31:26Z</time>
      </trkpt>
      <trkpt lat="44.7279" lon="5.87257">
        <ele>1457.89</ele>
        <time>2014-07-17T08:31:36Z</time>
      </trkpt>
      <trkpt lat="44.72789" lon="5.87253">
        <ele>1458.15</ele>
        <time>2014-07-17T08:31:39Z</time>
      </trkpt>
      <trkpt lat="44.7279" lon="5.87236">
        <ele>1459.184</ele>
        <time>2014-07-17T08:31:50Z</time>
      </trkpt>
      <trkpt lat="44.7279" lon="5.87231">
        <ele>1459.767</ele>
        <time>2014-07-17T08:31:54Z</time>
      </trkpt>
      <trkpt lat="44.72796" lon="5.87206">
        <ele>1461.111</ele>
        <time>2014-07-17T08:32:06Z</time>
      </trkpt>
      <trkpt lat="44.72793" lon="5.8719">
        <ele>1463.147</ele>
        <time>2014-07-17T08:32:17Z</time>
      </trkpt>
      <trkpt lat="44.72796" lon="5.87177">
        <ele>1463.805</ele>
        <time>2014-07-17T08:32:23Z</time>
      </trkpt>
      <trkpt lat="44.728" lon="5.8716">
        <ele>1464.94</ele>
        <time>2014-07-17T08:32:34Z</time>
      </trkpt>
      <trkpt lat="44.72805" lon="5.87147">
        <ele>1465.994</ele>
        <time>2014-07-17T08:32:49Z</time>
      </trkpt>
      <trkpt lat="44.72806" lon="5.87144">
        <ele>1465.729</ele>
        <time>2014-07-17T08:32:51Z</time>
      </trkpt>
      <trkpt lat="44.7281" lon="5.87132">
        <ele>1466.402</ele>
        <time>2014-07-17T08:33:08Z</time>
      </trkpt>
      <trkpt lat="44.72814" lon="5.87124">
        <ele>1466.877</ele>
        <time>2014-07-17T08:33:21Z</time>
      </trkpt>
      <trkpt lat="44.72823" lon="5.87101">
        <ele>1468.267</ele>
        <time>2014-07-17T08:33:34Z</time>
      </trkpt>
      <trkpt lat="44.72823" lon="5.87097">
        <ele>1468.282</ele>
        <time>2014-07-17T08:33:36Z</time>
      </trkpt>
      <trkpt lat="44.72832" lon="5.87067">
        <ele>1470.78</ele>
        <time>2014-07-17T08:33:53Z</time>
      </trkpt>
      <trkpt lat="44.72835" lon="5.87049">
        <ele>1471.49</ele>
        <time>2014-07-17T08:34:07Z</time>
      </trkpt>
      <trkpt lat="44.72836" lon="5.87038">
        <ele>1471.723</ele>
        <time>2014-07-17T08:34:20Z</time>
      </trkpt>
      <trkpt lat="44.72835" lon="5.87027">
        <ele>1472.697</ele>
        <time>2014-07-17T08:34:26Z</time>
      </trkpt>
      <trkpt lat="44.72836" lon="5.87003">
        <ele>1475.561</ele>
        <time>2014-07-17T08:34:40Z</time>
      </trkpt>
      <trkpt lat="44.72838" lon="5.87001">
        <ele>1476.227</ele>
        <time>2014-07-17T08:34:42Z</time>
      </trkpt>
      <trkpt lat="44.72839" lon="5.86996">
        <ele>1476.828</ele>
        <time>2014-07-17T08:34:46Z</time>
      </trkpt>
      <trkpt lat="44.72846" lon="5.86972">
        <ele>1480.603</ele>
        <time>2014-07-17T08:35:02Z</time>
      </trkpt>
      <trkpt lat="44.72848" lon="5.86961">
        <ele>1481.39</ele>
        <time>2014-07-17T08:35:17Z</time>
      </trkpt>
      <trkpt lat="44.72856" lon="5.86937">
        <ele>1483.197</ele>
        <time>2014-07-17T08:35:33Z</time>
      </trkpt>
      <trkpt lat="44.72862" lon="5.86917">
        <ele>1485.947</ele>
        <time>2014-07-17T08:35:48Z</time>
      </trkpt>
      <trkpt lat="44.72866" lon="5.86905">
        <ele>1488.968</ele>
        <time>2014-07-17T08:35:59Z</time>
      </trkpt>
      <trkpt lat="44.7287" lon="5.86888">
        <ele>1492.304</ele>
        <time>2014-07-17T08:36:13Z</time>
      </trkpt>
      <trkpt lat="44.72878" lon="5.86869">
        <ele>1496.038</ele>
        <time>2014-07-17T08:36:28Z</time>
      </trkpt>
      <trkpt lat="44.72884" lon="5.86853">
        <ele>1499.469</ele>
        <time>2014-07-17T08:36:43Z</time>
      </trkpt>
      <trkpt lat="44.72892" lon="5.86837">
        <ele>1502.615</ele>
        <time>2014-07-17T08:36:58Z</time>
      </trkpt>
      <trkpt lat="44.72898" lon="5.86825">
        <ele>1506.3</ele>
        <time>2014-07-17T08:37:13Z</time>
      </trkpt>
      <trkpt lat="44.72906" lon="5.8681">
        <ele>1510.022</ele>
        <time>2014-07-17T08:37:32Z</time>
      </trkpt>
      <trkpt lat="44.72914" lon="5.86799">
        <ele>1511.707</ele>
        <time>2014-07-17T08:37:46Z</time>
      </trkpt>
      <trkpt lat="44.72919" lon="5.8678">
        <ele>1515.163</ele>
        <time>2014-07-17T08:38:05Z</time>
      </trkpt>
      <trkpt lat="44.72924" lon="5.86767">
        <ele>1518.556</ele>
        <time>2014-07-17T08:38:20Z</time>
      </trkpt>
      <trkpt lat="44.72923" lon="5.86763">
        <ele>1518.958</ele>
        <time>2014-07-17T08:38:44Z</time>
      </trkpt>
      <trkpt lat="44.72923" lon="5.86757">
        <ele>1520.346</ele>
        <time>2014-07-17T08:39:04Z</time>
      </trkpt>
      <trkpt lat="44.72929" lon="5.86753">
        <ele>1521.817</ele>
        <time>2014-07-17T08:39:20Z</time>
      </trkpt>
      <trkpt lat="44.72936" lon="5.86745">
        <ele>1523.573</ele>
        <time>2014-07-17T08:39:37Z</time>
      </trkpt>
      <trkpt lat="44.72943" lon="5.86739">
        <ele>1525.395</ele>
        <time>2014-07-17T08:39:47Z</time>
      </trkpt>
      <trkpt lat="44.72951" lon="5.86728">
        <ele>1528.135</ele>
        <time>2014-07-17T08:40:01Z</time>
      </trkpt>
      <trkpt lat="44.7296" lon="5.8671">
        <ele>1531.582</ele>
        <time>2014-07-17T08:40:18Z</time>
      </trkpt>
      <trkpt lat="44.72972" lon="5.86695">
        <ele>1533.727</ele>
        <time>2014-07-17T08:40:36Z</time>
      </trkpt>
      <trkpt lat="44.72981" lon="5.86689">
        <ele>1536.079</ele>
        <time>2014-07-17T08:40:52Z</time>
      </trkpt>
      <trkpt lat="44.72984" lon="5.86686">
        <ele>1535.721</ele>
        <time>2014-07-17T08:41:04Z</time>
      </trkpt>
      <trkpt lat="44.73003" lon="5.86675">
        <ele>1538.951</ele>
        <time>2014-07-17T08:41:22Z</time>
      </trkpt>
      <trkpt lat="44.73016" lon="5.86667">
        <ele>1540.575</ele>
        <time>2014-07-17T08:41:40Z</time>
      </trkpt>
      <trkpt lat="44.73028" lon="5.8666">
        <ele>1541.485</ele>
        <time>2014-07-17T08:41:57Z</time>
      </trkpt>
      <trkpt lat="44.73038" lon="5.86656">
        <ele>1542.667</ele>
        <time>2014-07-17T08:42:06Z</time>
      </trkpt>
      <trkpt lat="44.7305" lon="5.86645">
        <ele>1545.774</ele>
        <time>2014-07-17T08:42:19Z</time>
      </trkpt>
      <trkpt lat="44.73064" lon="5.86635">
        <ele>1547.364</ele>
        <time>2014-07-17T08:42:36Z</time>
      </trkpt>
      <trkpt lat="44.73083" lon="5.86626">
        <ele>1550.294</ele>
        <time>2014-07-17T08:42:53Z</time>
      </trkpt>
      <trkpt lat="44.73096" lon="5.86631">
        <ele>1552.129</ele>
        <time>2014-07-17T08:43:23Z</time>
      </trkpt>
      <trkpt lat="44.73102" lon="5.86611">
        <ele>1553.971</ele>
        <time>2014-07-17T08:43:39Z</time>
      </trkpt>
      <trkpt lat="44.73105" lon="5.86594">
        <ele>1556.484</ele>
        <time>2014-07-17T08:43:51Z</time>
      </trkpt>
      <trkpt lat="44.73104" lon="5.86576">
        <ele>1558.002</ele>
        <time>2014-07-17T08:44:02Z</time>
      </trkpt>
      <trkpt lat="44.73101" lon="5.86559">
        <ele>1561.147</ele>
        <time>2014-07-17T08:44:15Z</time>
      </trkpt>
      <trkpt lat="44.73095" lon="5.8655">
        <ele>1564.336</ele>
        <time>2014-07-17T08:44:28Z</time>
      </trkpt>
      <trkpt lat="44.7309" lon="5.86528">
        <ele>1567.463</ele>
        <time>2014-07-17T08:44:47Z</time>
      </trkpt>
      <trkpt lat="44.73091" lon="5.86508">
        <ele>1570.543</ele>
        <time>2014-07-17T08:45:04Z</time>
      </trkpt>
      <trkpt lat="44.7309" lon="5.86487">
        <ele>1573.984</ele>
        <time>2014-07-17T08:45:25Z</time>
      </trkpt>
      <trkpt lat="44.73092" lon="5.8647">
        <ele>1576.753</ele>
        <time>2014-07-17T08:45:44Z</time>
      </trkpt>
      <trkpt lat="44.73091" lon="5.86466">
        <ele>1577.385</ele>
        <time>2014-07-17T08:45:48Z</time>
      </trkpt>
      <trkpt lat="44.73084" lon="5.86454">
        <ele>1579.739</ele>
        <time>2014-07-17T08:46:06Z</time>
      </trkpt>
      <trkpt lat="44.73086" lon="5.86448">
        <ele>1581.668</ele>
        <time>2014-07-17T08:46:20Z</time>
      </trkpt>
      <trkpt lat="44.73087" lon="5.86438">
        <ele>1584.327</ele>
        <time>2014-07-17T08:46:32Z</time>
      </trkpt>
      <trkpt lat="44.73086" lon="5.86434">
        <ele>1585.561</ele>
        <time>2014-07-17T08:46:36Z</time>
      </trkpt>
      <trkpt lat="44.73083" lon="5.86421">
        <ele>1588.535</ele>
        <time>2014-07-17T08:46:51Z</time>
      </trkpt>
      <trkpt lat="44.73079" lon="5.86404">
        <ele>1590.107</ele>
        <time>2014-07-17T08:47:07Z</time>
      </trkpt>
      <trkpt lat="44.73078" lon="5.86391">
        <ele>1592.156</ele>
        <time>2014-07-17T08:47:23Z</time>
      </trkpt>
      <trkpt lat="44.73079" lon="5.86388">
        <ele>1592.524</ele>
        <time>2014-07-17T08:47:27Z</time>
      </trkpt>
      <trkpt lat="44.7308" lon="5.86378">
        <ele>1594.962</ele>
        <time>2014-07-17T08:47:41Z</time>
      </trkpt>
      <trkpt lat="44.73079" lon="5.86364">
        <ele>1597.759</ele>
        <time>2014-07-17T08:47:57Z</time>
      </trkpt>
      <trkpt lat="44.7308" lon="5.8636">
        <ele>1599.076</ele>
        <time>2014-07-17T08:48:15Z</time>
      </trkpt>
      <trkpt lat="44.73083" lon="5.8635">
        <ele>1601.438</ele>
        <time>2014-07-17T08:48:31Z</time>
      </trkpt>
      <trkpt lat="44.73081" lon="5.86335">
        <ele>1604.44</ele>
        <time>2014-07-17T08:48:48Z</time>
      </trkpt>
      <trkpt lat="44.73082" lon="5.86329">
        <ele>1606.704</ele>
        <time>2014-07-17T08:49:17Z</time>
      </trkpt>
      <trkpt lat="44.73079" lon="5.86325">
        <ele>1606.876</ele>
        <time>2014-07-17T08:49:26Z</time>
      </trkpt>
      <trkpt lat="44.73074" lon="5.86325">
        <ele>1606.656</ele>
        <time>2014-07-17T08:49:31Z</time>
      </trkpt>
      <trkpt lat="44.73065" lon="5.8633">
        <ele>1607.388</ele>
        <time>2014-07-17T08:49:43Z</time>
      </trkpt>
      <trkpt lat="44.73049" lon="5.86332">
        <ele>1606.519</ele>
        <time>2014-07-17T08:50:00Z</time>
      </trkpt>
      <trkpt lat="44.73035" lon="5.86336">
        <ele>1606.684</ele>
        <time>2014-07-17T08:50:13Z</time>
      </trkpt>
      <trkpt lat="44.73031" lon="5.86335">
        <ele>1606.926</ele>
        <time>2014-07-17T08:50:18Z</time>
      </trkpt>
      <trkpt lat="44.73027" lon="5.86333">
        <ele>1606.737</ele>
        <time>2014-07-17T08:50:23Z</time>
      </trkpt>
      <trkpt lat="44.73024" lon="5.86329">
        <ele>1606.895</ele>
        <time>2014-07-17T08:50:27Z</time>
      </trkpt>
      <trkpt lat="44.73016" lon="5.86318">
        <ele>1606.959</ele>
        <time>2014-07-17T08:50:41Z</time>
      </trkpt>
      <trkpt lat="44.73009" lon="5.86308">
        <ele>1611.065</ele>
        <time>2014-07-17T08:58:21Z</time>
      </trkpt>
      <trkpt lat="44.73015" lon="5.86302">
        <ele>1612.667</ele>
        <time>2014-07-17T08:59:34Z</time>
      </trkpt>
      <trkpt lat="44.73027" lon="5.86301">
        <ele>1615.924</ele>
        <time>2014-07-17T08:59:51Z</time>
      </trkpt>
      <trkpt lat="44.73037" lon="5.86296">
        <ele>1619.147</ele>
        <time>2014-07-17T09:00:08Z</time>
      </trkpt>
      <trkpt lat="44.73044" lon="5.86279">
        <ele>1621.351</ele>
        <time>2014-07-17T09:00:29Z</time>
      </trkpt>
      <trkpt lat="44.73045" lon="5.86263">
        <ele>1624.565</ele>
        <time>2014-07-17T09:00:48Z</time>
      </trkpt>
      <trkpt lat="44.73052" lon="5.86253">
        <ele>1626.636</ele>
        <time>2014-07-17T09:01:06Z</time>
      </trkpt>
      <trkpt lat="44.73053" lon="5.86247">
        <ele>1627.815</ele>
        <time>2014-07-17T09:01:38Z</time>
      </trkpt>
      <trkpt lat="44.73055" lon="5.86238">
        <ele>1629.79</ele>
        <time>2014-07-17T09:01:55Z</time>
      </trkpt>
      <trkpt lat="44.73056" lon="5.86223">
        <ele>1632.776</ele>
        <time>2014-07-17T09:02:20Z</time>
      </trkpt>
      <trkpt lat="44.73061" lon="5.86215">
        <ele>1635.634</ele>
        <time>2014-07-17T09:02:34Z</time>
      </trkpt>
      <trkpt lat="44.73071" lon="5.86205">
        <ele>1639.004</ele>
        <time>2014-07-17T09:02:53Z</time>
      </trkpt>
      <trkpt lat="44.73066" lon="5.8618">
        <ele>1642.126</ele>
        <time>2014-07-17T09:03:16Z</time>
      </trkpt>
      <trkpt lat="44.73069" lon="5.86167">
        <ele>1644.973</ele>
        <time>2014-07-17T09:03:35Z</time>
      </trkpt>
      <trkpt lat="44.73066" lon="5.86152">
        <ele>1647.762</ele>
        <time>2014-07-17T09:03:50Z</time>
      </trkpt>
      <trkpt lat="44.7306" lon="5.86136">
        <ele>1650.307</ele>
        <time>2014-07-17T09:04:08Z</time>
      </trkpt>
      <trkpt lat="44.73058" lon="5.86123">
        <ele>1653.695</ele>
        <time>2014-07-17T09:04:26Z</time>
      </trkpt>
      <trkpt lat="44.73058" lon="5.86112">
        <ele>1656.126</ele>
        <time>2014-07-17T09:04:43Z</time>
      </trkpt>
      <trkpt lat="44.73062" lon="5.86105">
        <ele>1658.095</ele>
        <time>2014-07-17T09:04:56Z</time>
      </trkpt>
      <trkpt lat="44.73064" lon="5.86095">
        <ele>1660.411</ele>
        <time>2014-07-17T09:05:11Z</time>
      </trkpt>
      <trkpt lat="44.73063" lon="5.86083">
        <ele>1663.067</ele>
        <time>2014-07-17T09:05:28Z</time>
      </trkpt>
      <trkpt lat="44.73064" lon="5.86074">
        <ele>1665.015</ele>
        <time>2014-07-17T09:05:40Z</time>
      </trkpt>
      <trkpt lat="44.73058" lon="5.86062">
        <ele>1668.068</ele>
        <time>2014-07-17T09:05:57Z</time>
      </trkpt>
      <trkpt lat="44.73051" lon="5.86048">
        <ele>1671.365</ele>
        <time>2014-07-17T09:06:18Z</time>
      </trkpt>
      <trkpt lat="44.73051" lon="5.8604">
        <ele>1672.624</ele>
        <time>2014-07-17T09:06:27Z</time>
      </trkpt>
      <trkpt lat="44.73046" lon="5.86029">
        <ele>1674.954</ele>
        <time>2014-07-17T09:06:43Z</time>
      </trkpt>
      <trkpt lat="44.73042" lon="5.86022">
        <ele>1676.557</ele>
        <time>2014-07-17T09:07:01Z</time>
      </trkpt>
      <trkpt lat="44.73045" lon="5.86008">
        <ele>1680.221</ele>
        <time>2014-07-17T09:07:19Z</time>
      </trkpt>
      <trkpt lat="44.73048" lon="5.86004">
        <ele>1681.101</ele>
        <time>2014-07-17T09:07:42Z</time>
      </trkpt>
      <trkpt lat="44.73052" lon="5.85988">
        <ele>1683.658</ele>
        <time>2014-07-17T09:08:00Z</time>
      </trkpt>
      <trkpt lat="44.73051" lon="5.85978">
        <ele>1687.024</ele>
        <time>2014-07-17T09:08:14Z</time>
      </trkpt>
      <trkpt lat="44.73049" lon="5.85971">
        <ele>1690.22</ele>
        <time>2014-07-17T09:08:29Z</time>
      </trkpt>
      <trkpt lat="44.73053" lon="5.8596">
        <ele>1693.236</ele>
        <time>2014-07-17T09:08:45Z</time>
      </trkpt>
      <trkpt lat="44.73053" lon="5.85957">
        <ele>1693.743</ele>
        <time>2014-07-17T09:09:11Z</time>
      </trkpt>
      <trkpt lat="44.7305" lon="5.85942">
        <ele>1695.672</ele>
        <time>2014-07-17T09:09:27Z</time>
      </trkpt>
      <trkpt lat="44.73047" lon="5.8593">
        <ele>1698.974</ele>
        <time>2014-07-17T09:09:42Z</time>
      </trkpt>
      <trkpt lat="44.73043" lon="5.85922">
        <ele>1701.359</ele>
        <time>2014-07-17T09:09:57Z</time>
      </trkpt>
      <trkpt lat="44.7304" lon="5.8591">
        <ele>1703.842</ele>
        <time>2014-07-17T09:10:20Z</time>
      </trkpt>
      <trkpt lat="44.73041" lon="5.85902">
        <ele>1706.938</ele>
        <time>2014-07-17T09:10:37Z</time>
      </trkpt>
      <trkpt lat="44.73043" lon="5.85898">
        <ele>1709.199</ele>
        <time>2014-07-17T09:10:49Z</time>
      </trkpt>
      <trkpt lat="44.73041" lon="5.85888">
        <ele>1711.479</ele>
        <time>2014-07-17T09:11:02Z</time>
      </trkpt>
      <trkpt lat="44.73038" lon="5.85879">
        <ele>1714.936</ele>
        <time>2014-07-17T09:11:15Z</time>
      </trkpt>
      <trkpt lat="44.73026" lon="5.85868">
        <ele>1718.945</ele>
        <time>2014-07-17T09:12:14Z</time>
      </trkpt>
      <trkpt lat="44.73029" lon="5.85865">
        <ele>1719.883</ele>
        <time>2014-07-17T09:13:10Z</time>
      </trkpt>
      <trkpt lat="44.73039" lon="5.85856">
        <ele>1723.183</ele>
        <time>2014-07-17T09:13:29Z</time>
      </trkpt>
      <trkpt lat="44.73042" lon="5.85855">
        <ele>1723.704</ele>
        <time>2014-07-17T09:13:34Z</time>
      </trkpt>
      <trkpt lat="44.73046" lon="5.85847">
        <ele>1725.589</ele>
        <time>2014-07-17T09:13:47Z</time>
      </trkpt>
      <trkpt lat="44.73053" lon="5.85844">
        <ele>1727.814</ele>
        <time>2014-07-17T09:14:03Z</time>
      </trkpt>
      <trkpt lat="44.73052" lon="5.85834">
        <ele>1729.875</ele>
        <time>2014-07-17T09:14:20Z</time>
      </trkpt>
      <trkpt lat="44.73052" lon="5.85826">
        <ele>1732.879</ele>
        <time>2014-07-17T09:14:33Z</time>
      </trkpt>
      <trkpt lat="44.73054" lon="5.85827">
        <ele>1733.921</ele>
        <time>2014-07-17T09:14:59Z</time>
      </trkpt>
      <trkpt lat="44.73062" lon="5.85823">
        <ele>1737.14</ele>
        <time>2014-07-17T09:16:13Z</time>
      </trkpt>
      <trkpt lat="44.73069" lon="5.8582">
        <ele>1740.143</ele>
        <time>2014-07-17T09:16:27Z</time>
      </trkpt>
      <trkpt lat="44.73075" lon="5.85817">
        <ele>1743.173</ele>
        <time>2014-07-17T09:16:43Z</time>
      </trkpt>
      <trkpt lat="44.73081" lon="5.85811">
        <ele>1746.741</ele>
        <time>2014-07-17T09:16:58Z</time>
      </trkpt>
      <trkpt lat="44.73083" lon="5.85801">
        <ele>1749.835</ele>
        <time>2014-07-17T09:17:12Z</time>
      </trkpt>
      <trkpt lat="44.73084" lon="5.8579">
        <ele>1753.095</ele>
        <time>2014-07-17T09:17:27Z</time>
      </trkpt>
      <trkpt lat="44.73083" lon="5.85777">
        <ele>1756.138</ele>
        <time>2014-07-17T09:17:44Z</time>
      </trkpt>
      <trkpt lat="44.73079" lon="5.85765">
        <ele>1759.209</ele>
        <time>2014-07-17T09:18:01Z</time>
      </trkpt>
      <trkpt lat="44.73077" lon="5.85755">
        <ele>1762.285</ele>
        <time>2014-07-17T09:18:16Z</time>
      </trkpt>
      <trkpt lat="44.73074" lon="5.85746">
        <ele>1764.43</ele>
        <time>2014-07-17T09:18:37Z</time>
      </trkpt>
      <trkpt lat="44.7307" lon="5.85739">
        <ele>1767.463</ele>
        <time>2014-07-17T09:18:52Z</time>
      </trkpt>
      <trkpt lat="44.73066" lon="5.85736">
        <ele>1770.696</ele>
        <time>2014-07-17T09:19:07Z</time>
      </trkpt>
      <trkpt lat="44.73065" lon="5.85728">
        <ele>1773.991</ele>
        <time>2014-07-17T09:19:23Z</time>
      </trkpt>
      <trkpt lat="44.73063" lon="5.85724">
        <ele>1775.617</ele>
        <time>2014-07-17T09:19:42Z</time>
      </trkpt>
      <trkpt lat="44.73065" lon="5.85719">
        <ele>1778.874</ele>
        <time>2014-07-17T09:20:00Z</time>
      </trkpt>
      <trkpt lat="44.73069" lon="5.85718">
        <ele>1782.435</ele>
        <time>2014-07-17T09:20:14Z</time>
      </trkpt>
      <trkpt lat="44.73071" lon="5.85712">
        <ele>1785.185</ele>
        <time>2014-07-17T09:20:29Z</time>
      </trkpt>
      <trkpt lat="44.73078" lon="5.85718">
        <ele>1788.716</ele>
        <time>2014-07-17T09:20:44Z</time>
      </trkpt>
      <trkpt lat="44.73083" lon="5.8572">
        <ele>1790.539</ele>
        <time>2014-07-17T09:21:03Z</time>
      </trkpt>
      <trkpt lat="44.73089" lon="5.85713">
        <ele>1793.233</ele>
        <time>2014-07-17T09:23:06Z</time>
      </trkpt>
      <trkpt lat="44.73099" lon="5.85711">
        <ele>1796.554</ele>
        <time>2014-07-17T09:23:22Z</time>
      </trkpt>
      <trkpt lat="44.73106" lon="5.85703">
        <ele>1799.558</ele>
        <time>2014-07-17T09:23:37Z</time>
      </trkpt>
      <trkpt lat="44.7311" lon="5.8569">
        <ele>1802.69</ele>
        <time>2014-07-17T09:23:52Z</time>
      </trkpt>
      <trkpt lat="44.73121" lon="5.85683">
        <ele>1805.792</ele>
        <time>2014-07-17T09:24:11Z</time>
      </trkpt>
      <trkpt lat="44.73128" lon="5.85668">
        <ele>1808.404</ele>
        <time>2014-07-17T09:24:33Z</time>
      </trkpt>
      <trkpt lat="44.73137" lon="5.85654">
        <ele>1812.029</ele>
        <time>2014-07-17T09:24:55Z</time>
      </trkpt>
      <trkpt lat="44.73145" lon="5.85644">
        <ele>1814.511</ele>
        <time>2014-07-17T09:25:18Z</time>
      </trkpt>
      <trkpt lat="44.73141" lon="5.85635">
        <ele>1817.857</ele>
        <time>2014-07-17T09:25:33Z</time>
      </trkpt>
      <trkpt lat="44.73134" lon="5.85622">
        <ele>1821.445</ele>
        <time>2014-07-17T09:25:54Z</time>
      </trkpt>
      <trkpt lat="44.7313" lon="5.85611">
        <ele>1824.654</ele>
        <time>2014-07-17T09:26:11Z</time>
      </trkpt>
      <trkpt lat="44.73127" lon="5.85607">
        <ele>1826.595</ele>
        <time>2014-07-17T09:26:19Z</time>
      </trkpt>
      <trkpt lat="44.73123" lon="5.85598">
        <ele>1830.069</ele>
        <time>2014-07-17T09:26:35Z</time>
      </trkpt>
      <trkpt lat="44.73119" lon="5.85587">
        <ele>1833.355</ele>
        <time>2014-07-17T09:26:55Z</time>
      </trkpt>
      <trkpt lat="44.73116" lon="5.85578">
        <ele>1836.461</ele>
        <time>2014-07-17T09:27:10Z</time>
      </trkpt>
      <trkpt lat="44.73113" lon="5.85567">
        <ele>1840.04</ele>
        <time>2014-07-17T09:27:27Z</time>
      </trkpt>
      <trkpt lat="44.73113" lon="5.85557">
        <ele>1843.187</ele>
        <time>2014-07-17T09:27:42Z</time>
      </trkpt>
      <trkpt lat="44.73113" lon="5.85548">
        <ele>1846.314</ele>
        <time>2014-07-17T09:27:57Z</time>
      </trkpt>
      <trkpt lat="44.73115" lon="5.85546">
        <ele>1848.185</ele>
        <time>2014-07-17T09:31:38Z</time>
      </trkpt>
      <trkpt lat="44.73119" lon="5.85541">
        <ele>1851.35</ele>
        <time>2014-07-17T09:31:57Z</time>
      </trkpt>
      <trkpt lat="44.73127" lon="5.85537">
        <ele>1855.259</ele>
        <time>2014-07-17T09:32:12Z</time>
      </trkpt>
      <trkpt lat="44.73136" lon="5.85529">
        <ele>1858.383</ele>
        <time>2014-07-17T09:32:30Z</time>
      </trkpt>
      <trkpt lat="44.7314" lon="5.8552">
        <ele>1861.756</ele>
        <time>2014-07-17T09:32:49Z</time>
      </trkpt>
      <trkpt lat="44.73137" lon="5.85511">
        <ele>1864.827</ele>
        <time>2014-07-17T09:33:05Z</time>
      </trkpt>
      <trkpt lat="44.73133" lon="5.855">
        <ele>1867.016</ele>
        <time>2014-07-17T09:33:22Z</time>
      </trkpt>
      <trkpt lat="44.73143" lon="5.85498">
        <ele>1869.481</ele>
        <time>2014-07-17T09:33:41Z</time>
      </trkpt>
      <trkpt lat="44.73141" lon="5.85487">
        <ele>1872.605</ele>
        <time>2014-07-17T09:33:56Z</time>
      </trkpt>
      <trkpt lat="44.73136" lon="5.85473">
        <ele>1875.664</ele>
        <time>2014-07-17T09:34:14Z</time>
      </trkpt>
      <trkpt lat="44.73132" lon="5.85462">
        <ele>1878.902</ele>
        <time>2014-07-17T09:34:31Z</time>
      </trkpt>
      <trkpt lat="44.73127" lon="5.85448">
        <ele>1882.657</ele>
        <time>2014-07-17T09:34:51Z</time>
      </trkpt>
      <trkpt lat="44.73122" lon="5.85434">
        <ele>1886.121</ele>
        <time>2014-07-17T09:35:14Z</time>
      </trkpt>
      <trkpt lat="44.73131" lon="5.85432">
        <ele>1889.062</ele>
        <time>2014-07-17T09:35:32Z</time>
      </trkpt>
      <trkpt lat="44.73131" lon="5.85421">
        <ele>1892.331</ele>
        <time>2014-07-17T09:35:47Z</time>
      </trkpt>
      <trkpt lat="44.73142" lon="5.8542">
        <ele>1895.511</ele>
        <time>2014-07-17T09:36:05Z</time>
      </trkpt>
      <trkpt lat="44.73147" lon="5.85419">
        <ele>1897.155</ele>
        <time>2014-07-17T09:36:22Z</time>
      </trkpt>
      <trkpt lat="44.73158" lon="5.85413">
        <ele>1899.929</ele>
        <time>2014-07-17T09:36:46Z</time>
      </trkpt>
      <trkpt lat="44.73168" lon="5.85406">
        <ele>1903.774</ele>
        <time>2014-07-17T09:37:05Z</time>
      </trkpt>
      <trkpt lat="44.73171" lon="5.85403">
        <ele>1905.629</ele>
        <time>2014-07-17T09:37:34Z</time>
      </trkpt>
      <trkpt lat="44.73179" lon="5.85394">
        <ele>1908.391</ele>
        <time>2014-07-17T09:37:52Z</time>
      </trkpt>
      <trkpt lat="44.73178" lon="5.85389">
        <ele>1911.136</ele>
        <time>2014-07-17T09:38:11Z</time>
      </trkpt>
      <trkpt lat="44.73174" lon="5.85378">
        <ele>1914.2</ele>
        <time>2014-07-17T09:38:27Z</time>
      </trkpt>
      <trkpt lat="44.73169" lon="5.85368">
        <ele>1917.202</ele>
        <time>2014-07-17T09:38:44Z</time>
      </trkpt>
      <trkpt lat="44.73172" lon="5.85361">
        <ele>1919.905</ele>
        <time>2014-07-17T09:39:02Z</time>
      </trkpt>
      <trkpt lat="44.7318" lon="5.85357">
        <ele>1922.967</ele>
        <time>2014-07-17T09:39:20Z</time>
      </trkpt>
      <trkpt lat="44.73185" lon="5.8535">
        <ele>1926.33</ele>
        <time>2014-07-17T09:39:39Z</time>
      </trkpt>
      <trkpt lat="44.73178" lon="5.85339">
        <ele>1928.395</ele>
        <time>2014-07-17T09:39:56Z</time>
      </trkpt>
      <trkpt lat="44.73171" lon="5.85329">
        <ele>1931.485</ele>
        <time>2014-07-17T09:40:15Z</time>
      </trkpt>
      <trkpt lat="44.73178" lon="5.85324">
        <ele>1934.831</ele>
        <time>2014-07-17T09:40:32Z</time>
      </trkpt>
      <trkpt lat="44.73187" lon="5.8532">
        <ele>1937.844</ele>
        <time>2014-07-17T09:40:50Z</time>
      </trkpt>
      <trkpt lat="44.73185" lon="5.8531">
        <ele>1940.98</ele>
        <time>2014-07-17T09:41:07Z</time>
      </trkpt>
      <trkpt lat="44.73178" lon="5.85294">
        <ele>1944.285</ele>
        <time>2014-07-17T09:41:29Z</time>
      </trkpt>
      <trkpt lat="44.73184" lon="5.85293">
        <ele>1947.003</ele>
        <time>2014-07-17T09:41:47Z</time>
      </trkpt>
      <trkpt lat="44.73186" lon="5.85285">
        <ele>1950.045</ele>
        <time>2014-07-17T09:42:04Z</time>
      </trkpt>
      <trkpt lat="44.7319" lon="5.8528">
        <ele>1952.219</ele>
        <time>2014-07-17T09:42:19Z</time>
      </trkpt>
      <trkpt lat="44.73197" lon="5.85275">
        <ele>1955.336</ele>
        <time>2014-07-17T09:42:35Z</time>
      </trkpt>
      <trkpt lat="44.73194" lon="5.85266">
        <ele>1957.516</ele>
        <time>2014-07-17T09:42:52Z</time>
      </trkpt>
      <trkpt lat="44.73192" lon="5.85263">
        <ele>1959.034</ele>
        <time>2014-07-17T09:42:59Z</time>
      </trkpt>
      <trkpt lat="44.73189" lon="5.85253">
        <ele>1961.644</ele>
        <time>2014-07-17T09:43:13Z</time>
      </trkpt>
      <trkpt lat="44.73183" lon="5.85239">
        <ele>1964.304</ele>
        <time>2014-07-17T09:43:39Z</time>
      </trkpt>
      <trkpt lat="44.7319" lon="5.85242">
        <ele>1965.242</ele>
        <time>2014-07-17T09:44:17Z</time>
      </trkpt>
      <trkpt lat="44.73191" lon="5.85235">
        <ele>1968.072</ele>
        <time>2014-07-17T09:44:39Z</time>
      </trkpt>
      <trkpt lat="44.73187" lon="5.85221">
        <ele>1971.313</ele>
        <time>2014-07-17T09:44:58Z</time>
      </trkpt>
      <trkpt lat="44.73183" lon="5.85209">
        <ele>1974.331</ele>
        <time>2014-07-17T09:45:17Z</time>
      </trkpt>
      <trkpt lat="44.73181" lon="5.85199">
        <ele>1977.669</ele>
        <time>2014-07-17T09:45:31Z</time>
      </trkpt>
      <trkpt lat="44.73175" lon="5.85184">
        <ele>1981.081</ele>
        <time>2014-07-17T09:45:53Z</time>
      </trkpt>
      <trkpt lat="44.73177" lon="5.85178">
        <ele>1983.794</ele>
        <time>2014-07-17T09:46:09Z</time>
      </trkpt>
      <trkpt lat="44.73184" lon="5.85177">
        <ele>1985.873</ele>
        <time>2014-07-17T09:47:10Z</time>
      </trkpt>
      <trkpt lat="44.73195" lon="5.8518">
        <ele>1987.304</ele>
        <time>2014-07-17T09:47:26Z</time>
      </trkpt>
      <trkpt lat="44.73208" lon="5.85183">
        <ele>1989.678</ele>
        <time>2014-07-17T09:47:46Z</time>
      </trkpt>
      <trkpt lat="44.73217" lon="5.85177">
        <ele>1992.42</ele>
        <time>2014-07-17T09:48:09Z</time>
      </trkpt>
      <trkpt lat="44.7323" lon="5.85172">
        <ele>1995.16</ele>
        <time>2014-07-17T09:48:31Z</time>
      </trkpt>
      <trkpt lat="44.73231" lon="5.85167">
        <ele>1996.107</ele>
        <time>2014-07-17T09:48:57Z</time>
      </trkpt>
      <trkpt lat="44.73227" lon="5.85159">
        <ele>1998.696</ele>
        <time>2014-07-17T09:49:19Z</time>
      </trkpt>
      <trkpt lat="44.73224" lon="5.85151">
        <ele>2002.215</ele>
        <time>2014-07-17T09:49:34Z</time>
      </trkpt>
      <trkpt lat="44.7322" lon="5.8514">
        <ele>2005.602</ele>
        <time>2014-07-17T09:49:52Z</time>
      </trkpt>
      <trkpt lat="44.73216" lon="5.85128">
        <ele>2008.754</ele>
        <time>2014-07-17T09:50:13Z</time>
      </trkpt>
      <trkpt lat="44.73214" lon="5.85118">
        <ele>2012.071</ele>
        <time>2014-07-17T09:50:31Z</time>
      </trkpt>
      <trkpt lat="44.73217" lon="5.85109">
        <ele>2015.375</ele>
        <time>2014-07-17T09:50:50Z</time>
      </trkpt>
      <trkpt lat="44.73223" lon="5.85103">
        <ele>2018.621</ele>
        <time>2014-07-17T09:51:11Z</time>
      </trkpt>
      <trkpt lat="44.7322" lon="5.85091">
        <ele>2021.968</ele>
        <time>2014-07-17T09:51:29Z</time>
      </trkpt>
      <trkpt lat="44.73215" lon="5.85078">
        <ele>2025.433</ele>
        <time>2014-07-17T09:51:50Z</time>
      </trkpt>
      <trkpt lat="44.73214" lon="5.85068">
        <ele>2028.462</ele>
        <time>2014-07-17T09:52:18Z</time>
      </trkpt>
      <trkpt lat="44.73225" lon="5.85065">
        <ele>2031.719</ele>
        <time>2014-07-17T09:52:41Z</time>
      </trkpt>
      <trkpt lat="44.73232" lon="5.85063">
        <ele>2033.759</ele>
        <time>2014-07-17T09:53:01Z</time>
      </trkpt>
      <trkpt lat="44.73241" lon="5.85059">
        <ele>2035.68</ele>
        <time>2014-07-17T09:53:28Z</time>
      </trkpt>
      <trkpt lat="44.73246" lon="5.85049">
        <ele>2038.556</ele>
        <time>2014-07-17T09:53:48Z</time>
      </trkpt>
      <trkpt lat="44.73253" lon="5.85046">
        <ele>2041.663</ele>
        <time>2014-07-17T09:54:07Z</time>
      </trkpt>
      <trkpt lat="44.73265" lon="5.8504">
        <ele>2044.547</ele>
        <time>2014-07-17T09:54:28Z</time>
      </trkpt>
      <trkpt lat="44.73259" lon="5.85031">
        <ele>2047.488</ele>
        <time>2014-07-17T09:54:47Z</time>
      </trkpt>
      <trkpt lat="44.73254" lon="5.85023">
        <ele>2050.531</ele>
        <time>2014-07-17T09:55:03Z</time>
      </trkpt>
      <trkpt lat="44.73249" lon="5.85011">
        <ele>2053.646</ele>
        <time>2014-07-17T09:55:23Z</time>
      </trkpt>
      <trkpt lat="44.73246" lon="5.85002">
        <ele>2056.972</ele>
        <time>2014-07-17T09:55:40Z</time>
      </trkpt>
      <trkpt lat="44.73257" lon="5.84997">
        <ele>2059.802</ele>
        <time>2014-07-17T09:56:02Z</time>
      </trkpt>
      <trkpt lat="44.73269" lon="5.84988">
        <ele>2062.864</ele>
        <time>2014-07-17T09:56:23Z</time>
      </trkpt>
      <trkpt lat="44.73277" lon="5.84983">
        <ele>2064.427</ele>
        <time>2014-07-17T09:56:42Z</time>
      </trkpt>
      <trkpt lat="44.73274" lon="5.84979">
        <ele>2066.428</ele>
        <time>2014-07-17T09:57:14Z</time>
      </trkpt>
      <trkpt lat="44.73271" lon="5.84973">
        <ele>2068.567</ele>
        <time>2014-07-17T09:57:26Z</time>
      </trkpt>
      <trkpt lat="44.73263" lon="5.84964">
        <ele>2071.687</ele>
        <time>2014-07-17T09:57:44Z</time>
      </trkpt>
      <trkpt lat="44.73259" lon="5.84953">
        <ele>2074.702</ele>
        <time>2014-07-17T09:58:03Z</time>
      </trkpt>
      <trkpt lat="44.73256" lon="5.84942">
        <ele>2077.773</ele>
        <time>2014-07-17T09:58:19Z</time>
      </trkpt>
      <trkpt lat="44.73254" lon="5.84932">
        <ele>2079.918</ele>
        <time>2014-07-17T09:58:43Z</time>
      </trkpt>
      <trkpt lat="44.73259" lon="5.84932">
        <ele>2081.146</ele>
        <time>2014-07-17T09:59:38Z</time>
      </trkpt>
      <trkpt lat="44.73271" lon="5.84924">
        <ele>2084.329</ele>
        <time>2014-07-17T09:59:57Z</time>
      </trkpt>
      <trkpt lat="44.73284" lon="5.84916">
        <ele>2087.371</ele>
        <time>2014-07-17T10:00:19Z</time>
      </trkpt>
      <trkpt lat="44.73295" lon="5.84905">
        <ele>2090.433</ele>
        <time>2014-07-17T10:00:40Z</time>
      </trkpt>
      <trkpt lat="44.7329" lon="5.84902">
        <ele>2094.425</ele>
        <time>2014-07-17T10:05:09Z</time>
      </trkpt>
      <trkpt lat="44.73279" lon="5.84888">
        <ele>2097.065</ele>
        <time>2014-07-17T10:05:35Z</time>
      </trkpt>
      <trkpt lat="44.73278" lon="5.84876">
        <ele>2100.232</ele>
        <time>2014-07-17T10:05:51Z</time>
      </trkpt>
      <trkpt lat="44.73282" lon="5.84868">
        <ele>2103.307</ele>
        <time>2014-07-17T10:06:07Z</time>
      </trkpt>
      <trkpt lat="44.7329" lon="5.84853">
        <ele>2106.579</ele>
        <time>2014-07-17T10:06:30Z</time>
      </trkpt>
      <trkpt lat="44.73295" lon="5.84844">
        <ele>2109.689</ele>
        <time>2014-07-17T10:06:48Z</time>
      </trkpt>
      <trkpt lat="44.73299" lon="5.84833">
        <ele>2112.764</ele>
        <time>2014-07-17T10:07:10Z</time>
      </trkpt>
      <trkpt lat="44.733" lon="5.8483">
        <ele>2114.015</ele>
        <time>2014-07-17T10:07:33Z</time>
      </trkpt>
      <trkpt lat="44.73305" lon="5.84817">
        <ele>2117.022</ele>
        <time>2014-07-17T10:07:51Z</time>
      </trkpt>
      <trkpt lat="44.73309" lon="5.84815">
        <ele>2118.22</ele>
        <time>2014-07-17T10:08:12Z</time>
      </trkpt>
      <trkpt lat="44.73312" lon="5.84803">
        <ele>2119.78</ele>
        <time>2014-07-17T10:08:28Z</time>
      </trkpt>
      <trkpt lat="44.73322" lon="5.84783">
        <ele>2122.847</ele>
        <time>2014-07-17T10:08:53Z</time>
      </trkpt>
      <trkpt lat="44.7333" lon="5.84767">
        <ele>2126.403</ele>
        <time>2014-07-17T10:09:17Z</time>
      </trkpt>
      <trkpt lat="44.73331" lon="5.84752">
        <ele>2130.035</ele>
        <time>2014-07-17T10:09:40Z</time>
      </trkpt>
      <trkpt lat="44.73332" lon="5.84746">
        <ele>2130.874</ele>
        <time>2014-07-17T10:10:02Z</time>
      </trkpt>
      <trkpt lat="44.73336" lon="5.8472">
        <ele>2134.047</ele>
        <time>2014-07-17T10:10:29Z</time>
      </trkpt>
      <trkpt lat="44.73335" lon="5.84698">
        <ele>2135.937</ele>
        <time>2014-07-17T10:10:49Z</time>
      </trkpt>
      <trkpt lat="44.73342" lon="5.84667">
        <ele>2137.637</ele>
        <time>2014-07-17T10:11:15Z</time>
      </trkpt>
      <trkpt lat="44.7335" lon="5.84639">
        <ele>2140.46</ele>
        <time>2014-07-17T10:11:43Z</time>
      </trkpt>
      <trkpt lat="44.73354" lon="5.84607">
        <ele>2142.97</ele>
        <time>2014-07-17T10:12:13Z</time>
      </trkpt>
      <trkpt lat="44.73354" lon="5.84581">
        <ele>2145.815</ele>
        <time>2014-07-17T10:12:38Z</time>
      </trkpt>
      <trkpt lat="44.73349" lon="5.84563">
        <ele>2147.532</ele>
        <time>2014-07-17T10:12:57Z</time>
      </trkpt>
      <trkpt lat="44.73354" lon="5.84546">
        <ele>2150.716</ele>
        <time>2014-07-17T10:13:17Z</time>
      </trkpt>
      <trkpt lat="44.73359" lon="5.84522">
        <ele>2153.653</ele>
        <time>2014-07-17T10:13:41Z</time>
      </trkpt>
      <trkpt lat="44.73362" lon="5.84505">
        <ele>2156.674</ele>
        <time>2014-07-17T10:13:59Z</time>
      </trkpt>
      <trkpt lat="44.73362" lon="5.84491">
        <ele>2159.802</ele>
        <time>2014-07-17T10:14:18Z</time>
      </trkpt>
      <trkpt lat="44.7336" lon="5.84477">
        <ele>2163.042</ele>
        <time>2014-07-17T10:14:36Z</time>
      </trkpt>
      <trkpt lat="44.73361" lon="5.84465">
        <ele>2166.188</ele>
        <time>2014-07-17T10:14:53Z</time>
      </trkpt>
      <trkpt lat="44.73361" lon="5.84454">
        <ele>2169.258</ele>
        <time>2014-07-17T10:15:11Z</time>
      </trkpt>
      <trkpt lat="44.73362" lon="5.84437">
        <ele>2172.197</ele>
        <time>2014-07-17T10:15:33Z</time>
      </trkpt>
      <trkpt lat="44.73367" lon="5.84423">
        <ele>2175.227</ele>
        <time>2014-07-17T10:15:53Z</time>
      </trkpt>
      <trkpt lat="44.73371" lon="5.8441">
        <ele>2178.398</ele>
        <time>2014-07-17T10:16:13Z</time>
      </trkpt>
      <trkpt lat="44.73372" lon="5.84402">
        <ele>2180.152</ele>
        <time>2014-07-17T10:16:36Z</time>
      </trkpt>
      <trkpt lat="44.73373" lon="5.84399">
        <ele>2181.573</ele>
        <time>2014-07-17T10:17:10Z</time>
      </trkpt>
      <trkpt lat="44.73381" lon="5.84383">
        <ele>2183.922</ele>
        <time>2014-07-17T10:18:13Z</time>
      </trkpt>
      <trkpt lat="44.73388" lon="5.8436">
        <ele>2186.65</ele>
        <time>2014-07-17T10:18:38Z</time>
      </trkpt>
      <trkpt lat="44.73386" lon="5.84349">
        <ele>2189.764</ele>
        <time>2014-07-17T10:18:55Z</time>
      </trkpt>
      <trkpt lat="44.73383" lon="5.84335">
        <ele>2192.959</ele>
        <time>2014-07-17T10:19:14Z</time>
      </trkpt>
      <trkpt lat="44.73379" lon="5.84324">
        <ele>2196.102</ele>
        <time>2014-07-17T10:19:31Z</time>
      </trkpt>
      <trkpt lat="44.73375" lon="5.84308">
        <ele>2199.299</ele>
        <time>2014-07-17T10:19:51Z</time>
      </trkpt>
      <trkpt lat="44.73373" lon="5.84295">
        <ele>2202.485</ele>
        <time>2014-07-17T10:20:10Z</time>
      </trkpt>
      <trkpt lat="44.73371" lon="5.84284">
        <ele>2205.796</ele>
        <time>2014-07-17T10:20:28Z</time>
      </trkpt>
      <trkpt lat="44.73368" lon="5.84272">
        <ele>2208.798</ele>
        <time>2014-07-17T10:20:47Z</time>
      </trkpt>
      <trkpt lat="44.73363" lon="5.84261">
        <ele>2211.891</ele>
        <time>2014-07-17T10:21:05Z</time>
      </trkpt>
      <trkpt lat="44.73361" lon="5.84248">
        <ele>2215.054</ele>
        <time>2014-07-17T10:21:22Z</time>
      </trkpt>
      <trkpt lat="44.73357" lon="5.84235">
        <ele>2218.59</ele>
        <time>2014-07-17T10:21:40Z</time>
      </trkpt>
      <trkpt lat="44.73352" lon="5.84221">
        <ele>2221.629</ele>
        <time>2014-07-17T10:21:59Z</time>
      </trkpt>
      <trkpt lat="44.7335" lon="5.84209">
        <ele>2225.02</ele>
        <time>2014-07-17T10:22:17Z</time>
      </trkpt>
      <trkpt lat="44.7335" lon="5.84201">
        <ele>2227.129</ele>
        <time>2014-07-17T10:22:40Z</time>
      </trkpt>
      <trkpt lat="44.73351" lon="5.84192">
        <ele>2229.368</ele>
        <time>2014-07-17T10:23:00Z</time>
      </trkpt>
      <trkpt lat="44.73352" lon="5.84182">
        <ele>2230.781</ele>
        <time>2014-07-17T10:24:00Z</time>
      </trkpt>
      <trkpt lat="44.73351" lon="5.84172">
        <ele>2233.808</ele>
        <time>2014-07-17T10:24:13Z</time>
      </trkpt>
      <trkpt lat="44.73351" lon="5.84159">
        <ele>2236.85</ele>
        <time>2014-07-17T10:24:31Z</time>
      </trkpt>
      <trkpt lat="44.7335" lon="5.84147">
        <ele>2239.895</ele>
        <time>2014-07-17T10:24:48Z</time>
      </trkpt>
      <trkpt lat="44.7335" lon="5.84133">
        <ele>2243.017</ele>
        <time>2014-07-17T10:25:06Z</time>
      </trkpt>
      <trkpt lat="44.7335" lon="5.84121">
        <ele>2246.178</ele>
        <time>2014-07-17T10:25:23Z</time>
      </trkpt>
      <trkpt lat="44.7335" lon="5.84114">
        <ele>2248.448</ele>
        <time>2014-07-17T10:25:45Z</time>
      </trkpt>
      <trkpt lat="44.73352" lon="5.84102">
        <ele>2251.569</ele>
        <time>2014-07-17T10:26:04Z</time>
      </trkpt>
      <trkpt lat="44.73351" lon="5.84093">
        <ele>2254.597</ele>
        <time>2014-07-17T10:26:20Z</time>
      </trkpt>
      <trkpt lat="44.7335" lon="5.84079">
        <ele>2257.911</ele>
        <time>2014-07-17T10:26:43Z</time>
      </trkpt>
      <trkpt lat="44.73355" lon="5.84071">
        <ele>2261.094</ele>
        <time>2014-07-17T10:27:04Z</time>
      </trkpt>
      <trkpt lat="44.73366" lon="5.84068">
        <ele>2263.741</ele>
        <time>2014-07-17T10:27:26Z</time>
      </trkpt>
      <trkpt lat="44.73377" lon="5.84067">
        <ele>2266.595</ele>
        <time>2014-07-17T10:27:49Z</time>
      </trkpt>
      <trkpt lat="44.73391" lon="5.84068">
        <ele>2269.643</ele>
        <time>2014-07-17T10:28:12Z</time>
      </trkpt>
      <trkpt lat="44.73406" lon="5.8406">
        <ele>2272.488</ele>
        <time>2014-07-17T10:28:35Z</time>
      </trkpt>
      <trkpt lat="44.73414" lon="5.84054">
        <ele>2274.449</ele>
        <time>2014-07-17T10:28:54Z</time>
      </trkpt>
      <trkpt lat="44.73419" lon="5.84044">
        <ele>2276.276</ele>
        <time>2014-07-17T10:29:21Z</time>
      </trkpt>
      <trkpt lat="44.73413" lon="5.8404">
        <ele>2278.015</ele>
        <time>2014-07-17T10:29:53Z</time>
      </trkpt>
      <trkpt lat="44.73409" lon="5.8403">
        <ele>2280.302</ele>
        <time>2014-07-17T10:30:13Z</time>
      </trkpt>
      <trkpt lat="44.73406" lon="5.84024">
        <ele>2281.46</ele>
        <time>2014-07-17T10:30:34Z</time>
      </trkpt>
      <trkpt lat="44.73404" lon="5.84022">
        <ele>2281.754</ele>
        <time>2014-07-17T10:32:27Z</time>
      </trkpt>
      <trkpt lat="44.73403" lon="5.84019">
        <ele>2282.409</ele>
        <time>2014-07-17T10:33:59Z</time>
      </trkpt>
      <trkpt lat="44.73399" lon="5.84005">
        <ele>2284.393</ele>
        <time>2014-07-17T10:34:19Z</time>
      </trkpt>
      <trkpt lat="44.73396" lon="5.83995">
        <ele>2285.354</ele>
        <time>2014-07-17T10:34:28Z</time>
      </trkpt>
      <trkpt lat="44.73393" lon="5.83977">
        <ele>2287.103</ele>
        <time>2014-07-17T10:34:51Z</time>
      </trkpt>
      <trkpt lat="44.73384" lon="5.8396">
        <ele>2289.167</ele>
        <time>2014-07-17T10:35:08Z</time>
      </trkpt>
      <trkpt lat="44.73387" lon="5.8395">
        <ele>2291.623</ele>
        <time>2014-07-17T10:35:24Z</time>
      </trkpt>
      <trkpt lat="44.73398" lon="5.83946">
        <ele>2293.012</ele>
        <time>2014-07-17T10:35:40Z</time>
      </trkpt>
      <trkpt lat="44.73408" lon="5.83937">
        <ele>2295.541</ele>
        <time>2014-07-17T10:35:59Z</time>
      </trkpt>
      <trkpt lat="44.73415" lon="5.83924">
        <ele>2298.29</ele>
        <time>2014-07-17T10:36:20Z</time>
      </trkpt>
      <trkpt lat="44.73412" lon="5.83911">
        <ele>2301.115</ele>
        <time>2014-07-17T10:36:42Z</time>
      </trkpt>
      <trkpt lat="44.73416" lon="5.83908">
        <ele>2302.547</ele>
        <time>2014-07-17T10:36:59Z</time>
      </trkpt>
      <trkpt lat="44.73411" lon="5.83904">
        <ele>2302.786</ele>
        <time>2014-07-17T10:37:43Z</time>
      </trkpt>
      <trkpt lat="44.73409" lon="5.83892">
        <ele>2304.409</ele>
        <time>2014-07-17T10:37:59Z</time>
      </trkpt>
      <trkpt lat="44.73409" lon="5.83873">
        <ele>2307.551</ele>
        <time>2014-07-17T10:38:20Z</time>
      </trkpt>
      <trkpt lat="44.73409" lon="5.83853">
        <ele>2310.619</ele>
        <time>2014-07-17T10:38:39Z</time>
      </trkpt>
      <trkpt lat="44.73413" lon="5.83843">
        <ele>2313.761</ele>
        <time>2014-07-17T10:38:53Z</time>
      </trkpt>
      <trkpt lat="44.73422" lon="5.83835">
        <ele>2316.821</ele>
        <time>2014-07-17T10:39:13Z</time>
      </trkpt>
      <trkpt lat="44.7343" lon="5.83834">
        <ele>2319.966</ele>
        <time>2014-07-17T10:39:30Z</time>
      </trkpt>
      <trkpt lat="44.73433" lon="5.83823">
        <ele>2321.782</ele>
        <time>2014-07-17T10:39:52Z</time>
      </trkpt>
      <trkpt lat="44.73435" lon="5.83806">
        <ele>2325.309</ele>
        <time>2014-07-17T10:40:11Z</time>
      </trkpt>
      <trkpt lat="44.73435" lon="5.83797">
        <ele>2330.748</ele>
        <time>2014-07-17T11:12:37Z</time>
      </trkpt>
      <trkpt lat="44.73172" lon="5.85274">
        <ele>1965.698</ele>
        <time>2014-07-17T12:18:24Z</time>
      </trkpt>
      <trkpt lat="44.73161" lon="5.85276">
        <ele>1964.96</ele>
        <time>2014-07-17T12:20:08Z</time>
      </trkpt>
      <trkpt lat="44.73152" lon="5.85283">
        <ele>1961.359</ele>
        <time>2014-07-17T12:20:22Z</time>
      </trkpt>
      <trkpt lat="44.73146" lon="5.85288">
        <ele>1958.241</ele>
        <time>2014-07-17T12:20:32Z</time>
      </trkpt>
      <trkpt lat="44.73145" lon="5.85301">
        <ele>1954.534</ele>
        <time>2014-07-17T12:20:46Z</time>
      </trkpt>
      <trkpt lat="44.73145" lon="5.85313">
        <ele>1951.4</ele>
        <time>2014-07-17T12:20:59Z</time>
      </trkpt>
      <trkpt lat="44.73143" lon="5.85316">
        <ele>1949.642</ele>
        <time>2014-07-17T12:21:20Z</time>
      </trkpt>
      <trkpt lat="44.73141" lon="5.85318">
        <ele>1948.002</ele>
        <time>2014-07-17T12:21:24Z</time>
      </trkpt>
      <trkpt lat="44.73137" lon="5.85327">
        <ele>1944.985</ele>
        <time>2014-07-17T12:21:36Z</time>
      </trkpt>
      <trkpt lat="44.73133" lon="5.85335">
        <ele>1941.651</ele>
        <time>2014-07-17T12:21:47Z</time>
      </trkpt>
      <trkpt lat="44.7313" lon="5.85341">
        <ele>1938.6</ele>
        <time>2014-07-17T12:21:53Z</time>
      </trkpt>
      <trkpt lat="44.73124" lon="5.8535">
        <ele>1935.327</ele>
        <time>2014-07-17T12:22:07Z</time>
      </trkpt>
      <trkpt lat="44.73123" lon="5.85357">
        <ele>1932.503</ele>
        <time>2014-07-17T12:22:15Z</time>
      </trkpt>
      <trkpt lat="44.73122" lon="5.85366">
        <ele>1929.198</ele>
        <time>2014-07-17T12:22:25Z</time>
      </trkpt>
      <trkpt lat="44.73119" lon="5.85375">
        <ele>1925.784</ele>
        <time>2014-07-17T12:22:36Z</time>
      </trkpt>
      <trkpt lat="44.73116" lon="5.85386">
        <ele>1921.812</ele>
        <time>2014-07-17T12:22:48Z</time>
      </trkpt>
      <trkpt lat="44.73118" lon="5.85397">
        <ele>1918.155</ele>
        <time>2014-07-17T12:22:58Z</time>
      </trkpt>
      <trkpt lat="44.7312" lon="5.85409">
        <ele>1915.013</ele>
        <time>2014-07-17T12:23:09Z</time>
      </trkpt>
      <trkpt lat="44.73119" lon="5.85415">
        <ele>1911.848</ele>
        <time>2014-07-17T12:23:34Z</time>
      </trkpt>
      <trkpt lat="44.73117" lon="5.85423">
        <ele>1908.782</ele>
        <time>2014-07-17T12:23:44Z</time>
      </trkpt>
      <trkpt lat="44.73115" lon="5.85431">
        <ele>1905.519</ele>
        <time>2014-07-17T12:23:53Z</time>
      </trkpt>
      <trkpt lat="44.73114" lon="5.85442">
        <ele>1902.363</ele>
        <time>2014-07-17T12:24:04Z</time>
      </trkpt>
      <trkpt lat="44.73115" lon="5.85453">
        <ele>1898.683</ele>
        <time>2014-07-17T12:24:14Z</time>
      </trkpt>
      <trkpt lat="44.73114" lon="5.85463">
        <ele>1894.913</ele>
        <time>2014-07-17T12:24:26Z</time>
      </trkpt>
      <trkpt lat="44.73118" lon="5.85477">
        <ele>1891.302</ele>
        <time>2014-07-17T12:24:39Z</time>
      </trkpt>
      <trkpt lat="44.73119" lon="5.85488">
        <ele>1888.126</ele>
        <time>2014-07-17T12:24:51Z</time>
      </trkpt>
      <trkpt lat="44.7312" lon="5.85496">
        <ele>1886.51</ele>
        <time>2014-07-17T12:25:14Z</time>
      </trkpt>
      <trkpt lat="44.7312" lon="5.85505">
        <ele>1883.405</ele>
        <time>2014-07-17T12:25:25Z</time>
      </trkpt>
      <trkpt lat="44.7312" lon="5.85518">
        <ele>1879.316</ele>
        <time>2014-07-17T12:25:39Z</time>
      </trkpt>
      <trkpt lat="44.73121" lon="5.85526">
        <ele>1876.175</ele>
        <time>2014-07-17T12:25:48Z</time>
      </trkpt>
      <trkpt lat="44.73121" lon="5.85535">
        <ele>1873.057</ele>
        <time>2014-07-17T12:25:58Z</time>
      </trkpt>
      <trkpt lat="44.73122" lon="5.85547">
        <ele>1869.832</ele>
        <time>2014-07-17T12:26:09Z</time>
      </trkpt>
      <trkpt lat="44.73125" lon="5.8556">
        <ele>1866.745</ele>
        <time>2014-07-17T12:26:23Z</time>
      </trkpt>
      <trkpt lat="44.73125" lon="5.85571">
        <ele>1861.619</ele>
        <time>2014-07-17T12:26:37Z</time>
      </trkpt>
      <trkpt lat="44.73128" lon="5.85583">
        <ele>1858.074</ele>
        <time>2014-07-17T12:26:51Z</time>
      </trkpt>
      <trkpt lat="44.73132" lon="5.85592">
        <ele>1854.686</ele>
        <time>2014-07-17T12:27:01Z</time>
      </trkpt>
      <trkpt lat="44.73136" lon="5.856">
        <ele>1851.755</ele>
        <time>2014-07-17T12:27:09Z</time>
      </trkpt>
      <trkpt lat="44.7314" lon="5.8561">
        <ele>1848.164</ele>
        <time>2014-07-17T12:27:22Z</time>
      </trkpt>
      <trkpt lat="44.73143" lon="5.85619">
        <ele>1844.738</ele>
        <time>2014-07-17T12:27:31Z</time>
      </trkpt>
      <trkpt lat="44.73148" lon="5.85626">
        <ele>1841.269</ele>
        <time>2014-07-17T12:27:40Z</time>
      </trkpt>
      <trkpt lat="44.7315" lon="5.85632">
        <ele>1839.972</ele>
        <time>2014-07-17T12:27:46Z</time>
      </trkpt>
      <trkpt lat="44.73151" lon="5.85643">
        <ele>1836.463</ele>
        <time>2014-07-17T12:28:03Z</time>
      </trkpt>
      <trkpt lat="44.73154" lon="5.85656">
        <ele>1833.441</ele>
        <time>2014-07-17T12:28:17Z</time>
      </trkpt>
      <trkpt lat="44.73154" lon="5.85658">
        <ele>1833.203</ele>
        <time>2014-07-17T12:28:25Z</time>
      </trkpt>
      <trkpt lat="44.73155" lon="5.85661">
        <ele>1832.497</ele>
        <time>2014-07-17T12:28:28Z</time>
      </trkpt>
      <trkpt lat="44.73154" lon="5.85664">
        <ele>1831.552</ele>
        <time>2014-07-17T12:28:30Z</time>
      </trkpt>
      <trkpt lat="44.73153" lon="5.85673">
        <ele>1829.337</ele>
        <time>2014-07-17T12:28:36Z</time>
      </trkpt>
      <trkpt lat="44.73143" lon="5.857">
        <ele>1826.496</ele>
        <time>2014-07-17T12:28:56Z</time>
      </trkpt>
      <trkpt lat="44.73138" lon="5.85724">
        <ele>1825.781</ele>
        <time>2014-07-17T12:29:14Z</time>
      </trkpt>
      <trkpt lat="44.73133" lon="5.85724">
        <ele>1824.594</ele>
        <time>2014-07-17T12:29:28Z</time>
      </trkpt>
      <trkpt lat="44.73127" lon="5.8572">
        <ele>1823.422</ele>
        <time>2014-07-17T12:29:35Z</time>
      </trkpt>
      <trkpt lat="44.73117" lon="5.85714">
        <ele>1820.613</ele>
        <time>2014-07-17T12:29:49Z</time>
      </trkpt>
      <trkpt lat="44.73109" lon="5.85709">
        <ele>1819.495</ele>
        <time>2014-07-17T12:29:58Z</time>
      </trkpt>
      <trkpt lat="44.731" lon="5.85709">
        <ele>1816.858</ele>
        <time>2014-07-17T12:30:12Z</time>
      </trkpt>
      <trkpt lat="44.73097" lon="5.85712">
        <ele>1814.92</ele>
        <time>2014-07-17T12:30:26Z</time>
      </trkpt>
      <trkpt lat="44.73087" lon="5.85713">
        <ele>1812.422</ele>
        <time>2014-07-17T12:30:41Z</time>
      </trkpt>
      <trkpt lat="44.73087" lon="5.85717">
        <ele>1811.37</ele>
        <time>2014-07-17T12:33:18Z</time>
      </trkpt>
      <trkpt lat="44.73085" lon="5.85715">
        <ele>1809.884</ele>
        <time>2014-07-17T12:34:05Z</time>
      </trkpt>
      <trkpt lat="44.73077" lon="5.85712">
        <ele>1806.621</ele>
        <time>2014-07-17T12:34:18Z</time>
      </trkpt>
      <trkpt lat="44.7307" lon="5.85712">
        <ele>1803.45</ele>
        <time>2014-07-17T12:34:32Z</time>
      </trkpt>
      <trkpt lat="44.73067" lon="5.85718">
        <ele>1800.283</ele>
        <time>2014-07-17T12:34:43Z</time>
      </trkpt>
      <trkpt lat="44.73062" lon="5.85721">
        <ele>1798.006</ele>
        <time>2014-07-17T12:34:52Z</time>
      </trkpt>
      <trkpt lat="44.73064" lon="5.8573">
        <ele>1794.828</ele>
        <time>2014-07-17T12:35:02Z</time>
      </trkpt>
      <trkpt lat="44.73065" lon="5.85738">
        <ele>1791.753</ele>
        <time>2014-07-17T12:35:12Z</time>
      </trkpt>
      <trkpt lat="44.73071" lon="5.85745">
        <ele>1787.339</ele>
        <time>2014-07-17T12:36:16Z</time>
      </trkpt>
      <trkpt lat="44.73072" lon="5.85748">
        <ele>1786.075</ele>
        <time>2014-07-17T12:36:22Z</time>
      </trkpt>
      <trkpt lat="44.73077" lon="5.85756">
        <ele>1782.787</ele>
        <time>2014-07-17T12:36:39Z</time>
      </trkpt>
      <trkpt lat="44.7308" lon="5.85764">
        <ele>1779.425</ele>
        <time>2014-07-17T12:36:49Z</time>
      </trkpt>
      <trkpt lat="44.73083" lon="5.85771">
        <ele>1778.055</ele>
        <time>2014-07-17T12:36:57Z</time>
      </trkpt>
      <trkpt lat="44.73085" lon="5.85778">
        <ele>1775.55</ele>
        <time>2014-07-17T12:37:04Z</time>
      </trkpt>
      <trkpt lat="44.73086" lon="5.85784">
        <ele>1773.599</ele>
        <time>2014-07-17T12:37:11Z</time>
      </trkpt>
      <trkpt lat="44.73087" lon="5.85796">
        <ele>1770.341</ele>
        <time>2014-07-17T12:37:26Z</time>
      </trkpt>
      <trkpt lat="44.73087" lon="5.85807">
        <ele>1766.753</ele>
        <time>2014-07-17T12:37:42Z</time>
      </trkpt>
      <trkpt lat="44.73079" lon="5.85813">
        <ele>1763.856</ele>
        <time>2014-07-17T12:37:56Z</time>
      </trkpt>
      <trkpt lat="44.73072" lon="5.85816">
        <ele>1760.487</ele>
        <time>2014-07-17T12:38:08Z</time>
      </trkpt>
      <trkpt lat="44.73064" lon="5.8582">
        <ele>1757.201</ele>
        <time>2014-07-17T12:38:24Z</time>
      </trkpt>
      <trkpt lat="44.73061" lon="5.85823">
        <ele>1755.176</ele>
        <time>2014-07-17T12:38:32Z</time>
      </trkpt>
      <trkpt lat="44.73055" lon="5.85827">
        <ele>1752.16</ele>
        <time>2014-07-17T12:38:44Z</time>
      </trkpt>
      <trkpt lat="44.7305" lon="5.85836">
        <ele>1748.583</ele>
        <time>2014-07-17T12:38:56Z</time>
      </trkpt>
      <trkpt lat="44.73042" lon="5.85843">
        <ele>1744.089</ele>
        <time>2014-07-17T12:39:08Z</time>
      </trkpt>
      <trkpt lat="44.73029" lon="5.85849">
        <ele>1741.22</ele>
        <time>2014-07-17T12:39:24Z</time>
      </trkpt>
      <trkpt lat="44.73022" lon="5.85855">
        <ele>1738.217</ele>
        <time>2014-07-17T12:39:33Z</time>
      </trkpt>
      <trkpt lat="44.73016" lon="5.85859">
        <ele>1736.732</ele>
        <time>2014-07-17T12:39:40Z</time>
      </trkpt>
      <trkpt lat="44.73014" lon="5.85861">
        <ele>1736.195</ele>
        <time>2014-07-17T12:39:42Z</time>
      </trkpt>
      <trkpt lat="44.73008" lon="5.8587">
        <ele>1734.404</ele>
        <time>2014-07-17T12:39:57Z</time>
      </trkpt>
      <trkpt lat="44.7301" lon="5.85876">
        <ele>1734.176</ele>
        <time>2014-07-17T12:40:30Z</time>
      </trkpt>
      <trkpt lat="44.7301" lon="5.85883">
        <ele>1730.744</ele>
        <time>2014-07-17T12:40:42Z</time>
      </trkpt>
      <trkpt lat="44.7301" lon="5.8589">
        <ele>1728.501</ele>
        <time>2014-07-17T12:40:51Z</time>
      </trkpt>
      <trkpt lat="44.73013" lon="5.85899">
        <ele>1724.278</ele>
        <time>2014-07-17T12:41:04Z</time>
      </trkpt>
      <trkpt lat="44.73018" lon="5.8591">
        <ele>1721.188</ele>
        <time>2014-07-17T12:41:17Z</time>
      </trkpt>
      <trkpt lat="44.73018" lon="5.8592">
        <ele>1717.853</ele>
        <time>2014-07-17T12:41:34Z</time>
      </trkpt>
      <trkpt lat="44.73024" lon="5.8593">
        <ele>1715.779</ele>
        <time>2014-07-17T12:41:48Z</time>
      </trkpt>
      <trkpt lat="44.7302" lon="5.85938">
        <ele>1716.405</ele>
        <time>2014-07-17T12:42:00Z</time>
      </trkpt>
      <trkpt lat="44.73017" lon="5.85957">
        <ele>1713.993</ele>
        <time>2014-07-17T12:42:18Z</time>
      </trkpt>
      <trkpt lat="44.73016" lon="5.85962">
        <ele>1711.983</ele>
        <time>2014-07-17T12:42:25Z</time>
      </trkpt>
      <trkpt lat="44.73014" lon="5.85964">
        <ele>1712.484</ele>
        <time>2014-07-17T12:42:30Z</time>
      </trkpt>
      <trkpt lat="44.73008" lon="5.85964">
        <ele>1711.161</ele>
        <time>2014-07-17T12:42:36Z</time>
      </trkpt>
      <trkpt lat="44.73" lon="5.8596">
        <ele>1708.916</ele>
        <time>2014-07-17T12:42:46Z</time>
      </trkpt>
      <trkpt lat="44.72998" lon="5.85962">
        <ele>1707.555</ele>
        <time>2014-07-17T12:42:49Z</time>
      </trkpt>
      <trkpt lat="44.7299" lon="5.85962">
        <ele>1704.217</ele>
        <time>2014-07-17T12:43:02Z</time>
      </trkpt>
      <trkpt lat="44.72984" lon="5.85967">
        <ele>1700.897</ele>
        <time>2014-07-17T12:43:15Z</time>
      </trkpt>
      <trkpt lat="44.72972" lon="5.85974">
        <ele>1697.951</ele>
        <time>2014-07-17T12:43:30Z</time>
      </trkpt>
      <trkpt lat="44.72969" lon="5.85978">
        <ele>1696.337</ele>
        <time>2014-07-17T12:43:34Z</time>
      </trkpt>
      <trkpt lat="44.72966" lon="5.85987">
        <ele>1696.4</ele>
        <time>2014-07-17T12:43:41Z</time>
      </trkpt>
      <trkpt lat="44.72963" lon="5.85996">
        <ele>1694.304</ele>
        <time>2014-07-17T12:44:00Z</time>
      </trkpt>
      <trkpt lat="44.72964" lon="5.86001">
        <ele>1693.746</ele>
        <time>2014-07-17T12:44:06Z</time>
      </trkpt>
      <trkpt lat="44.72967" lon="5.86011">
        <ele>1691.798</ele>
        <time>2014-07-17T12:44:14Z</time>
      </trkpt>
      <trkpt lat="44.72969" lon="5.86015">
        <ele>1691.346</ele>
        <time>2014-07-17T12:44:17Z</time>
      </trkpt>
      <trkpt lat="44.72969" lon="5.86019">
        <ele>1690.322</ele>
        <time>2014-07-17T12:44:20Z</time>
      </trkpt>
      <trkpt lat="44.72968" lon="5.86022">
        <ele>1689.548</ele>
        <time>2014-07-17T12:44:23Z</time>
      </trkpt>
      <trkpt lat="44.72969" lon="5.86037">
        <ele>1688.173</ele>
        <time>2014-07-17T12:44:37Z</time>
      </trkpt>
      <trkpt lat="44.72965" lon="5.8604">
        <ele>1686.761</ele>
        <time>2014-07-17T12:44:51Z</time>
      </trkpt>
      <trkpt lat="44.72966" lon="5.86046">
        <ele>1682.752</ele>
        <time>2014-07-17T12:45:12Z</time>
      </trkpt>
      <trkpt lat="44.72964" lon="5.86054">
        <ele>1679.496</ele>
        <time>2014-07-17T12:45:23Z</time>
      </trkpt>
      <trkpt lat="44.72965" lon="5.86075">
        <ele>1677.187</ele>
        <time>2014-07-17T12:45:40Z</time>
      </trkpt>
      <trkpt lat="44.72972" lon="5.8609">
        <ele>1676.64</ele>
        <time>2014-07-17T12:46:00Z</time>
      </trkpt>
      <trkpt lat="44.72973" lon="5.86106">
        <ele>1673.323</ele>
        <time>2014-07-17T12:46:12Z</time>
      </trkpt>
      <trkpt lat="44.72974" lon="5.86123">
        <ele>1670.189</ele>
        <time>2014-07-17T12:46:27Z</time>
      </trkpt>
      <trkpt lat="44.72977" lon="5.86137">
        <ele>1666.682</ele>
        <time>2014-07-17T12:46:41Z</time>
      </trkpt>
      <trkpt lat="44.72978" lon="5.86151">
        <ele>1663.406</ele>
        <time>2014-07-17T12:46:55Z</time>
      </trkpt>
      <trkpt lat="44.7298" lon="5.86169">
        <ele>1659.326</ele>
        <time>2014-07-17T12:47:11Z</time>
      </trkpt>
      <trkpt lat="44.72978" lon="5.86177">
        <ele>1657.503</ele>
        <time>2014-07-17T12:47:19Z</time>
      </trkpt>
      <trkpt lat="44.72975" lon="5.86191">
        <ele>1654.329</ele>
        <time>2014-07-17T12:47:32Z</time>
      </trkpt>
      <trkpt lat="44.7297" lon="5.86205">
        <ele>1651.177</ele>
        <time>2014-07-17T12:47:49Z</time>
      </trkpt>
      <trkpt lat="44.72967" lon="5.86217">
        <ele>1648.143</ele>
        <time>2014-07-17T12:48:05Z</time>
      </trkpt>
      <trkpt lat="44.72959" lon="5.86224">
        <ele>1645.731</ele>
        <time>2014-07-17T12:48:18Z</time>
      </trkpt>
      <trkpt lat="44.72952" lon="5.86233">
        <ele>1642.164</ele>
        <time>2014-07-17T12:48:33Z</time>
      </trkpt>
      <trkpt lat="44.72946" lon="5.86242">
        <ele>1638.754</ele>
        <time>2014-07-17T12:48:49Z</time>
      </trkpt>
      <trkpt lat="44.7295" lon="5.86248">
        <ele>1637.53</ele>
        <time>2014-07-17T12:49:09Z</time>
      </trkpt>
      <trkpt lat="44.72959" lon="5.86255">
        <ele>1636.104</ele>
        <time>2014-07-17T12:49:28Z</time>
      </trkpt>
      <trkpt lat="44.7297" lon="5.86266">
        <ele>1634.453</ele>
        <time>2014-07-17T12:49:46Z</time>
      </trkpt>
      <trkpt lat="44.7297" lon="5.8627">
        <ele>1631.561</ele>
        <time>2014-07-17T12:50:33Z</time>
      </trkpt>
      <trkpt lat="44.72974" lon="5.86277">
        <ele>1628.641</ele>
        <time>2014-07-17T12:52:26Z</time>
      </trkpt>
      <trkpt lat="44.72978" lon="5.86282">
        <ele>1626.255</ele>
        <time>2014-07-17T12:52:38Z</time>
      </trkpt>
      <trkpt lat="44.72989" lon="5.86299">
        <ele>1624.516</ele>
        <time>2014-07-17T12:52:54Z</time>
      </trkpt>
      <trkpt lat="44.73" lon="5.86307">
        <ele>1624.384</ele>
        <time>2014-07-17T12:53:07Z</time>
      </trkpt>
      <trkpt lat="44.7301" lon="5.8632">
        <ele>1622.797</ele>
        <time>2014-07-17T12:53:21Z</time>
      </trkpt>
      <trkpt lat="44.73011" lon="5.86326">
        <ele>1622.228</ele>
        <time>2014-07-17T12:53:29Z</time>
      </trkpt>
      <trkpt lat="44.73007" lon="5.86337">
        <ele>1618.778</ele>
        <time>2014-07-17T12:53:40Z</time>
      </trkpt>
      <trkpt lat="44.73004" lon="5.86351">
        <ele>1615.087</ele>
        <time>2014-07-17T12:53:55Z</time>
      </trkpt>
      <trkpt lat="44.73004" lon="5.86357">
        <ele>1614.546</ele>
        <time>2014-07-17T12:54:00Z</time>
      </trkpt>
      <trkpt lat="44.73002" lon="5.86365">
        <ele>1612.793</ele>
        <time>2014-07-17T12:54:06Z</time>
      </trkpt>
      <trkpt lat="44.73003" lon="5.86369">
        <ele>1612.175</ele>
        <time>2014-07-17T12:54:09Z</time>
      </trkpt>
      <trkpt lat="44.73002" lon="5.86379">
        <ele>1610.616</ele>
        <time>2014-07-17T12:54:22Z</time>
      </trkpt>
      <trkpt lat="44.73002" lon="5.86389">
        <ele>1606.992</ele>
        <time>2014-07-17T12:54:41Z</time>
      </trkpt>
      <trkpt lat="44.73007" lon="5.864">
        <ele>1604.391</ele>
        <time>2014-07-17T12:54:55Z</time>
      </trkpt>
      <trkpt lat="44.7302" lon="5.86404">
        <ele>1604.525</ele>
        <time>2014-07-17T12:55:12Z</time>
      </trkpt>
      <trkpt lat="44.73023" lon="5.86403">
        <ele>1604.902</ele>
        <time>2014-07-17T12:55:35Z</time>
      </trkpt>
      <trkpt lat="44.73035" lon="5.86407">
        <ele>1603.577</ele>
        <time>2014-07-17T12:56:00Z</time>
      </trkpt>
      <trkpt lat="44.73043" lon="5.86417">
        <ele>1600.531</ele>
        <time>2014-07-17T12:56:13Z</time>
      </trkpt>
      <trkpt lat="44.73044" lon="5.86419">
        <ele>1600.259</ele>
        <time>2014-07-17T12:56:16Z</time>
      </trkpt>
      <trkpt lat="44.73056" lon="5.86423">
        <ele>1599.548</ele>
        <time>2014-07-17T12:56:32Z</time>
      </trkpt>
      <trkpt lat="44.7307" lon="5.86425">
        <ele>1601.114</ele>
        <time>2014-07-17T12:56:49Z</time>
      </trkpt>
      <trkpt lat="44.73079" lon="5.86433">
        <ele>1600.689</ele>
        <time>2014-07-17T12:57:02Z</time>
      </trkpt>
      <trkpt lat="44.73091" lon="5.86443">
        <ele>1598.652</ele>
        <time>2014-07-17T12:57:17Z</time>
      </trkpt>
      <trkpt lat="44.731" lon="5.86451">
        <ele>1595.586</ele>
        <time>2014-07-17T12:57:30Z</time>
      </trkpt>
      <trkpt lat="44.73103" lon="5.86454">
        <ele>1595.577</ele>
        <time>2014-07-17T12:57:34Z</time>
      </trkpt>
      <trkpt lat="44.73104" lon="5.86469">
        <ele>1592.255</ele>
        <time>2014-07-17T12:57:52Z</time>
      </trkpt>
      <trkpt lat="44.73107" lon="5.86486">
        <ele>1589.087</ele>
        <time>2014-07-17T12:58:07Z</time>
      </trkpt>
      <trkpt lat="44.7311" lon="5.86492">
        <ele>1587.725</ele>
        <time>2014-07-17T12:58:14Z</time>
      </trkpt>
      <trkpt lat="44.73112" lon="5.86504">
        <ele>1584.708</ele>
        <time>2014-07-17T12:58:25Z</time>
      </trkpt>
      <trkpt lat="44.73117" lon="5.86509">
        <ele>1582.101</ele>
        <time>2014-07-17T12:58:34Z</time>
      </trkpt>
      <trkpt lat="44.73121" lon="5.86517">
        <ele>1579.678</ele>
        <time>2014-07-17T12:58:50Z</time>
      </trkpt>
      <trkpt lat="44.73121" lon="5.86523">
        <ele>1578.627</ele>
        <time>2014-07-17T12:59:07Z</time>
      </trkpt>
      <trkpt lat="44.73122" lon="5.86536">
        <ele>1576.819</ele>
        <time>2014-07-17T12:59:20Z</time>
      </trkpt>
      <trkpt lat="44.73125" lon="5.86544">
        <ele>1576.086</ele>
        <time>2014-07-17T12:59:25Z</time>
      </trkpt>
      <trkpt lat="44.73124" lon="5.86549">
        <ele>1575.661</ele>
        <time>2014-07-17T12:59:28Z</time>
      </trkpt>
      <trkpt lat="44.73124" lon="5.86568">
        <ele>1574.536</ele>
        <time>2014-07-17T12:59:43Z</time>
      </trkpt>
      <trkpt lat="44.73115" lon="5.86575">
        <ele>1573.746</ele>
        <time>2014-07-17T12:59:53Z</time>
      </trkpt>
      <trkpt lat="44.73112" lon="5.8658">
        <ele>1573.201</ele>
        <time>2014-07-17T12:59:58Z</time>
      </trkpt>
      <trkpt lat="44.73108" lon="5.86596">
        <ele>1572.211</ele>
        <time>2014-07-17T13:00:08Z</time>
      </trkpt>
      <trkpt lat="44.73104" lon="5.86601">
        <ele>1571.505</ele>
        <time>2014-07-17T13:00:13Z</time>
      </trkpt>
      <trkpt lat="44.73099" lon="5.86597">
        <ele>1570.957</ele>
        <time>2014-07-17T13:00:28Z</time>
      </trkpt>
      <trkpt lat="44.73104" lon="5.8661">
        <ele>1569.96</ele>
        <time>2014-07-17T13:00:41Z</time>
      </trkpt>
      <trkpt lat="44.73103" lon="5.86613">
        <ele>1568.916</ele>
        <time>2014-07-17T13:00:44Z</time>
      </trkpt>
      <trkpt lat="44.73085" lon="5.86618">
        <ele>1565.983</ele>
        <time>2014-07-17T13:01:02Z</time>
      </trkpt>
      <trkpt lat="44.73066" lon="5.8663">
        <ele>1562.912</ele>
        <time>2014-07-17T13:01:21Z</time>
      </trkpt>
      <trkpt lat="44.73049" lon="5.86643">
        <ele>1561.074</ele>
        <time>2014-07-17T13:01:38Z</time>
      </trkpt>
      <trkpt lat="44.73035" lon="5.86654">
        <ele>1558.034</ele>
        <time>2014-07-17T13:01:52Z</time>
      </trkpt>
      <trkpt lat="44.73016" lon="5.86664">
        <ele>1555.658</ele>
        <time>2014-07-17T13:02:09Z</time>
      </trkpt>
      <trkpt lat="44.73012" lon="5.86666">
        <ele>1556.088</ele>
        <time>2014-07-17T13:02:13Z</time>
      </trkpt>
      <trkpt lat="44.73006" lon="5.86669">
        <ele>1555.137</ele>
        <time>2014-07-17T13:02:18Z</time>
      </trkpt>
      <trkpt lat="44.72987" lon="5.8668">
        <ele>1551.897</ele>
        <time>2014-07-17T13:02:38Z</time>
      </trkpt>
      <trkpt lat="44.72982" lon="5.86684">
        <ele>1550.911</ele>
        <time>2014-07-17T13:02:43Z</time>
      </trkpt>
      <trkpt lat="44.72968" lon="5.86703">
        <ele>1548.366</ele>
        <time>2014-07-17T13:03:03Z</time>
      </trkpt>
      <trkpt lat="44.7296" lon="5.86712">
        <ele>1546.305</ele>
        <time>2014-07-17T13:03:25Z</time>
      </trkpt>
      <trkpt lat="44.72958" lon="5.86718">
        <ele>1545.375</ele>
        <time>2014-07-17T13:03:38Z</time>
      </trkpt>
      <trkpt lat="44.72947" lon="5.86734">
        <ele>1542.109</ele>
        <time>2014-07-17T13:03:54Z</time>
      </trkpt>
      <trkpt lat="44.72938" lon="5.86747">
        <ele>1538.68</ele>
        <time>2014-07-17T13:04:08Z</time>
      </trkpt>
      <trkpt lat="44.72936" lon="5.86749">
        <ele>1539.065</ele>
        <time>2014-07-17T13:04:10Z</time>
      </trkpt>
      <trkpt lat="44.7293" lon="5.86762">
        <ele>1535.094</ele>
        <time>2014-07-17T13:04:24Z</time>
      </trkpt>
      <trkpt lat="44.72928" lon="5.86768">
        <ele>1533.816</ele>
        <time>2014-07-17T13:04:30Z</time>
      </trkpt>
      <trkpt lat="44.72925" lon="5.86785">
        <ele>1530.82</ele>
        <time>2014-07-17T13:04:43Z</time>
      </trkpt>
      <trkpt lat="44.72922" lon="5.86791">
        <ele>1528.92</ele>
        <time>2014-07-17T13:04:49Z</time>
      </trkpt>
      <trkpt lat="44.72922" lon="5.86796">
        <ele>1527.935</ele>
        <time>2014-07-17T13:05:09Z</time>
      </trkpt>
      <trkpt lat="44.72921" lon="5.86799">
        <ele>1526.879</ele>
        <time>2014-07-17T13:05:53Z</time>
      </trkpt>
      <trkpt lat="44.72916" lon="5.86801">
        <ele>1525.623</ele>
        <time>2014-07-17T13:05:57Z</time>
      </trkpt>
      <trkpt lat="44.72912" lon="5.86802">
        <ele>1525.309</ele>
        <time>2014-07-17T13:06:00Z</time>
      </trkpt>
      <trkpt lat="44.72909" lon="5.86804">
        <ele>1523.912</ele>
        <time>2014-07-17T13:06:03Z</time>
      </trkpt>
      <trkpt lat="44.72905" lon="5.86804">
        <ele>1522.931</ele>
        <time>2014-07-17T13:06:06Z</time>
      </trkpt>
      <trkpt lat="44.72886" lon="5.86809">
        <ele>1519.806</ele>
        <time>2014-07-17T13:06:22Z</time>
      </trkpt>
      <trkpt lat="44.72868" lon="5.86814">
        <ele>1516.083</ele>
        <time>2014-07-17T13:06:39Z</time>
      </trkpt>
      <trkpt lat="44.72846" lon="5.86815">
        <ele>1514.688</ele>
        <time>2014-07-17T13:06:57Z</time>
      </trkpt>
      <trkpt lat="44.72826" lon="5.86814">
        <ele>1513.261</ele>
        <time>2014-07-17T13:07:14Z</time>
      </trkpt>
      <trkpt lat="44.72805" lon="5.86816">
        <ele>1510.21</ele>
        <time>2014-07-17T13:07:32Z</time>
      </trkpt>
      <trkpt lat="44.72798" lon="5.86824">
        <ele>1508.59</ele>
        <time>2014-07-17T13:07:39Z</time>
      </trkpt>
      <trkpt lat="44.72801" lon="5.86855">
        <ele>1505.809</ele>
        <time>2014-07-17T13:07:59Z</time>
      </trkpt>
      <trkpt lat="44.72814" lon="5.86877">
        <ele>1502.557</ele>
        <time>2014-07-17T13:08:16Z</time>
      </trkpt>
      <trkpt lat="44.72822" lon="5.86888">
        <ele>1501.665</ele>
        <time>2014-07-17T13:08:35Z</time>
      </trkpt>
      <trkpt lat="44.72827" lon="5.86892">
        <ele>1501.001</ele>
        <time>2014-07-17T13:08:42Z</time>
      </trkpt>
      <trkpt lat="44.72842" lon="5.86895">
        <ele>1500.794</ele>
        <time>2014-07-17T13:08:55Z</time>
      </trkpt>
      <trkpt lat="44.7285" lon="5.86897">
        <ele>1499.613</ele>
        <time>2014-07-17T13:09:01Z</time>
      </trkpt>
      <trkpt lat="44.72859" lon="5.86912">
        <ele>1498.435</ele>
        <time>2014-07-17T13:09:15Z</time>
      </trkpt>
      <trkpt lat="44.7286" lon="5.86917">
        <ele>1498.568</ele>
        <time>2014-07-17T13:09:19Z</time>
      </trkpt>
      <trkpt lat="44.7286" lon="5.86924">
        <ele>1498.37</ele>
        <time>2014-07-17T13:09:23Z</time>
      </trkpt>
      <trkpt lat="44.72861" lon="5.8693">
        <ele>1498.604</ele>
        <time>2014-07-17T13:09:27Z</time>
      </trkpt>
      <trkpt lat="44.72856" lon="5.86945">
        <ele>1496.487</ele>
        <time>2014-07-17T13:09:39Z</time>
      </trkpt>
      <trkpt lat="44.72854" lon="5.86966">
        <ele>1495.726</ele>
        <time>2014-07-17T13:09:59Z</time>
      </trkpt>
      <trkpt lat="44.72853" lon="5.86972">
        <ele>1495.5</ele>
        <time>2014-07-17T13:10:04Z</time>
      </trkpt>
      <trkpt lat="44.72849" lon="5.86984">
        <ele>1493.963</ele>
        <time>2014-07-17T13:10:13Z</time>
      </trkpt>
      <trkpt lat="44.72847" lon="5.86988">
        <ele>1492.988</ele>
        <time>2014-07-17T13:10:16Z</time>
      </trkpt>
      <trkpt lat="44.72842" lon="5.86996">
        <ele>1491</ele>
        <time>2014-07-17T13:10:23Z</time>
      </trkpt>
      <trkpt lat="44.72841" lon="5.87001">
        <ele>1490.342</ele>
        <time>2014-07-17T13:10:28Z</time>
      </trkpt>
      <trkpt lat="44.7284" lon="5.87007">
        <ele>1489.198</ele>
        <time>2014-07-17T13:10:32Z</time>
      </trkpt>
      <trkpt lat="44.7284" lon="5.87011">
        <ele>1488.962</ele>
        <time>2014-07-17T13:10:34Z</time>
      </trkpt>
      <trkpt lat="44.72839" lon="5.87041">
        <ele>1486.481</ele>
        <time>2014-07-17T13:10:51Z</time>
      </trkpt>
      <trkpt lat="44.72836" lon="5.87051">
        <ele>1485.83</ele>
        <time>2014-07-17T13:10:57Z</time>
      </trkpt>
      <trkpt lat="44.72828" lon="5.87084">
        <ele>1483.426</ele>
        <time>2014-07-17T13:11:17Z</time>
      </trkpt>
      <trkpt lat="44.72814" lon="5.8712">
        <ele>1481.324</ele>
        <time>2014-07-17T13:11:40Z</time>
      </trkpt>
      <trkpt lat="44.7281" lon="5.8713">
        <ele>1481.599</ele>
        <time>2014-07-17T13:11:46Z</time>
      </trkpt>
      <trkpt lat="44.72805" lon="5.87142">
        <ele>1480.037</ele>
        <time>2014-07-17T13:11:56Z</time>
      </trkpt>
      <trkpt lat="44.72801" lon="5.87156">
        <ele>1479.758</ele>
        <time>2014-07-17T13:12:09Z</time>
      </trkpt>
      <trkpt lat="44.72799" lon="5.87166">
        <ele>1479.386</ele>
        <time>2014-07-17T13:12:14Z</time>
      </trkpt>
      <trkpt lat="44.72795" lon="5.87179">
        <ele>1478.252</ele>
        <time>2014-07-17T13:12:23Z</time>
      </trkpt>
      <trkpt lat="44.72791" lon="5.87202">
        <ele>1475.715</ele>
        <time>2014-07-17T13:12:35Z</time>
      </trkpt>
      <trkpt lat="44.7279" lon="5.87207">
        <ele>1475.72</ele>
        <time>2014-07-17T13:12:38Z</time>
      </trkpt>
      <trkpt lat="44.7279" lon="5.87215">
        <ele>1474.945</ele>
        <time>2014-07-17T13:12:43Z</time>
      </trkpt>
      <trkpt lat="44.72789" lon="5.87222">
        <ele>1474.475</ele>
        <time>2014-07-17T13:12:47Z</time>
      </trkpt>
      <trkpt lat="44.72791" lon="5.87227">
        <ele>1474.214</ele>
        <time>2014-07-17T13:12:50Z</time>
      </trkpt>
      <trkpt lat="44.72792" lon="5.87239">
        <ele>1473.562</ele>
        <time>2014-07-17T13:12:56Z</time>
      </trkpt>
      <trkpt lat="44.72794" lon="5.87248">
        <ele>1472.984</ele>
        <time>2014-07-17T13:13:10Z</time>
      </trkpt>
      <trkpt lat="44.72795" lon="5.87251">
        <ele>1473.06</ele>
        <time>2014-07-17T13:13:15Z</time>
      </trkpt>
      <trkpt lat="44.72792" lon="5.87278">
        <ele>1471.935</ele>
        <time>2014-07-17T13:13:31Z</time>
      </trkpt>
      <trkpt lat="44.7279" lon="5.87283">
        <ele>1471.517</ele>
        <time>2014-07-17T13:13:35Z</time>
      </trkpt>
      <trkpt lat="44.72789" lon="5.8731">
        <ele>1469.058</ele>
        <time>2014-07-17T13:13:50Z</time>
      </trkpt>
      <trkpt lat="44.72788" lon="5.87318">
        <ele>1468.557</ele>
        <time>2014-07-17T13:13:55Z</time>
      </trkpt>
      <trkpt lat="44.72784" lon="5.87335">
        <ele>1467.029</ele>
        <time>2014-07-17T13:14:05Z</time>
      </trkpt>
      <trkpt lat="44.7278" lon="5.87358">
        <ele>1465.518</ele>
        <time>2014-07-17T13:14:19Z</time>
      </trkpt>
      <trkpt lat="44.72778" lon="5.87369">
        <ele>1464.929</ele>
        <time>2014-07-17T13:14:26Z</time>
      </trkpt>
      <trkpt lat="44.72777" lon="5.8738">
        <ele>1464.416</ele>
        <time>2014-07-17T13:14:34Z</time>
      </trkpt>
      <trkpt lat="44.72773" lon="5.87396">
        <ele>1463.568</ele>
        <time>2014-07-17T13:14:44Z</time>
      </trkpt>
      <trkpt lat="44.7277" lon="5.8741">
        <ele>1463.006</ele>
        <time>2014-07-17T13:14:53Z</time>
      </trkpt>
      <trkpt lat="44.72761" lon="5.87432">
        <ele>1460.214</ele>
        <time>2014-07-17T13:15:12Z</time>
      </trkpt>
      <trkpt lat="44.7276" lon="5.87435">
        <ele>1459.223</ele>
        <time>2014-07-17T13:15:14Z</time>
      </trkpt>
      <trkpt lat="44.72757" lon="5.87447">
        <ele>1457.385</ele>
        <time>2014-07-17T13:15:29Z</time>
      </trkpt>
      <trkpt lat="44.72756" lon="5.87449">
        <ele>1456.403</ele>
        <time>2014-07-17T13:15:53Z</time>
      </trkpt>
      <trkpt lat="44.72755" lon="5.87465">
        <ele>1454.986</ele>
        <time>2014-07-17T13:16:05Z</time>
      </trkpt>
      <trkpt lat="44.72746" lon="5.87483">
        <ele>1451.584</ele>
        <time>2014-07-17T13:16:18Z</time>
      </trkpt>
      <trkpt lat="44.72735" lon="5.87498">
        <ele>1449.033</ele>
        <time>2014-07-17T13:16:32Z</time>
      </trkpt>
      <trkpt lat="44.7273" lon="5.87501">
        <ele>1448.746</ele>
        <time>2014-07-17T13:16:47Z</time>
      </trkpt>
      <trkpt lat="44.72726" lon="5.87512">
        <ele>1447.079</ele>
        <time>2014-07-17T13:17:09Z</time>
      </trkpt>
      <trkpt lat="44.72707" lon="5.87544">
        <ele>1444.614</ele>
        <time>2014-07-17T13:17:30Z</time>
      </trkpt>
      <trkpt lat="44.72686" lon="5.87575">
        <ele>1442.599</ele>
        <time>2014-07-17T13:17:51Z</time>
      </trkpt>
      <trkpt lat="44.72666" lon="5.87602">
        <ele>1439.397</ele>
        <time>2014-07-17T13:18:09Z</time>
      </trkpt>
      <trkpt lat="44.72652" lon="5.87618">
        <ele>1436.001</ele>
        <time>2014-07-17T13:18:22Z</time>
      </trkpt>
      <trkpt lat="44.72639" lon="5.87633">
        <ele>1432.865</ele>
        <time>2014-07-17T13:18:34Z</time>
      </trkpt>
      <trkpt lat="44.72625" lon="5.87646">
        <ele>1429.84</ele>
        <time>2014-07-17T13:18:46Z</time>
      </trkpt>
      <trkpt lat="44.7261" lon="5.87658">
        <ele>1426.779</ele>
        <time>2014-07-17T13:19:00Z</time>
      </trkpt>
      <trkpt lat="44.72603" lon="5.87654">
        <ele>1425.79</ele>
        <time>2014-07-17T13:19:10Z</time>
      </trkpt>
      <trkpt lat="44.72605" lon="5.87649">
        <ele>1425.552</ele>
        <time>2014-07-17T13:19:29Z</time>
      </trkpt>
      <trkpt lat="44.72606" lon="5.87641">
        <ele>1424.869</ele>
        <time>2014-07-17T13:19:38Z</time>
      </trkpt>
      <trkpt lat="44.7261" lon="5.876">
        <ele>1422.744</ele>
        <time>2014-07-17T13:20:00Z</time>
      </trkpt>
      <trkpt lat="44.72611" lon="5.87579">
        <ele>1421.952</ele>
        <time>2014-07-17T13:20:11Z</time>
      </trkpt>
      <trkpt lat="44.72612" lon="5.87574">
        <ele>1421.577</ele>
        <time>2014-07-17T13:20:14Z</time>
      </trkpt>
      <trkpt lat="44.7261" lon="5.87544">
        <ele>1421.581</ele>
        <time>2014-07-17T13:20:31Z</time>
      </trkpt>
      <trkpt lat="44.72605" lon="5.87534">
        <ele>1422.371</ele>
        <time>2014-07-17T13:20:39Z</time>
      </trkpt>
      <trkpt lat="44.72597" lon="5.87507">
        <ele>1423.414</ele>
        <time>2014-07-17T13:20:57Z</time>
      </trkpt>
      <trkpt lat="44.72597" lon="5.87503">
        <ele>1423.884</ele>
        <time>2014-07-17T13:21:00Z</time>
      </trkpt>
      <trkpt lat="44.72598" lon="5.87488">
        <ele>1423.246</ele>
        <time>2014-07-17T13:21:08Z</time>
      </trkpt>
      <trkpt lat="44.726" lon="5.87482">
        <ele>1423.04</ele>
        <time>2014-07-17T13:21:12Z</time>
      </trkpt>
      <trkpt lat="44.72613" lon="5.87442">
        <ele>1420.695</ele>
        <time>2014-07-17T13:21:38Z</time>
      </trkpt>
      <trkpt lat="44.72623" lon="5.87398">
        <ele>1420.938</ele>
        <time>2014-07-17T13:22:05Z</time>
      </trkpt>
      <trkpt lat="44.72631" lon="5.87369">
        <ele>1421.309</ele>
        <time>2014-07-17T13:22:24Z</time>
      </trkpt>
      <trkpt lat="44.72634" lon="5.87352">
        <ele>1421.17</ele>
        <time>2014-07-17T13:22:35Z</time>
      </trkpt>
      <trkpt lat="44.72639" lon="5.87322">
        <ele>1421.91</ele>
        <time>2014-07-17T13:22:56Z</time>
      </trkpt>
      <trkpt lat="44.72647" lon="5.87295">
        <ele>1421.513</ele>
        <time>2014-07-17T13:23:16Z</time>
      </trkpt>
      <trkpt lat="44.72655" lon="5.87267">
        <ele>1418.451</ele>
        <time>2014-07-17T13:23:37Z</time>
      </trkpt>
      <trkpt lat="44.72657" lon="5.87257">
        <ele>1416.738</ele>
        <time>2014-07-17T13:23:45Z</time>
      </trkpt>
      <trkpt lat="44.72639" lon="5.87237">
        <ele>1413.929</ele>
        <time>2014-07-17T13:24:06Z</time>
      </trkpt>
      <trkpt lat="44.72629" lon="5.87226">
        <ele>1412.42</ele>
        <time>2014-07-17T13:24:19Z</time>
      </trkpt>
      <trkpt lat="44.72616" lon="5.87205">
        <ele>1409.517</ele>
        <time>2014-07-17T13:24:38Z</time>
      </trkpt>
      <trkpt lat="44.72613" lon="5.87199">
        <ele>1408.895</ele>
        <time>2014-07-17T13:24:43Z</time>
      </trkpt>
      <trkpt lat="44.72602" lon="5.87183">
        <ele>1405.577</ele>
        <time>2014-07-17T13:24:59Z</time>
      </trkpt>
      <trkpt lat="44.72596" lon="5.87182">
        <ele>1403.542</ele>
        <time>2014-07-17T13:25:08Z</time>
      </trkpt>
      <trkpt lat="44.72587" lon="5.8719">
        <ele>1400.099</ele>
        <time>2014-07-17T13:25:19Z</time>
      </trkpt>
      <trkpt lat="44.72584" lon="5.87192">
        <ele>1398.743</ele>
        <time>2014-07-17T13:25:23Z</time>
      </trkpt>
      <trkpt lat="44.72575" lon="5.87195">
        <ele>1397.084</ele>
        <time>2014-07-17T13:25:32Z</time>
      </trkpt>
      <trkpt lat="44.72567" lon="5.87204">
        <ele>1394.444</ele>
        <time>2014-07-17T13:25:46Z</time>
      </trkpt>
      <trkpt lat="44.72568" lon="5.87208">
        <ele>1393.699</ele>
        <time>2014-07-17T13:25:50Z</time>
      </trkpt>
      <trkpt lat="44.72568" lon="5.87221">
        <ele>1390.505</ele>
        <time>2014-07-17T13:26:04Z</time>
      </trkpt>
      <trkpt lat="44.72569" lon="5.87225">
        <ele>1389.193</ele>
        <time>2014-07-17T13:26:13Z</time>
      </trkpt>
      <trkpt lat="44.7257" lon="5.87242">
        <ele>1387.162</ele>
        <time>2014-07-17T13:26:27Z</time>
      </trkpt>
      <trkpt lat="44.7256" lon="5.87243">
        <ele>1384.679</ele>
        <time>2014-07-17T13:26:34Z</time>
      </trkpt>
      <trkpt lat="44.72552" lon="5.87247">
        <ele>1383.525</ele>
        <time>2014-07-17T13:26:40Z</time>
      </trkpt>
      <trkpt lat="44.72545" lon="5.87273">
        <ele>1379.255</ele>
        <time>2014-07-17T13:26:54Z</time>
      </trkpt>
      <trkpt lat="44.72543" lon="5.87279">
        <ele>1378.225</ele>
        <time>2014-07-17T13:26:58Z</time>
      </trkpt>
      <trkpt lat="44.72535" lon="5.87281">
        <ele>1376.028</ele>
        <time>2014-07-17T13:27:05Z</time>
      </trkpt>
      <trkpt lat="44.7253" lon="5.87285">
        <ele>1375.401</ele>
        <time>2014-07-17T13:27:09Z</time>
      </trkpt>
      <trkpt lat="44.72527" lon="5.87286">
        <ele>1374.111</ele>
        <time>2014-07-17T13:27:12Z</time>
      </trkpt>
      <trkpt lat="44.72521" lon="5.87299">
        <ele>1372.722</ele>
        <time>2014-07-17T13:27:20Z</time>
      </trkpt>
      <trkpt lat="44.72515" lon="5.87305">
        <ele>1370.115</ele>
        <time>2014-07-17T13:27:28Z</time>
      </trkpt>
      <trkpt lat="44.72516" lon="5.87315">
        <ele>1368.62</ele>
        <time>2014-07-17T13:27:39Z</time>
      </trkpt>
      <trkpt lat="44.72515" lon="5.87325">
        <ele>1366.461</ele>
        <time>2014-07-17T13:29:06Z</time>
      </trkpt>
      <trkpt lat="44.72514" lon="5.8733">
        <ele>1365.231</ele>
        <time>2014-07-17T13:29:09Z</time>
      </trkpt>
      <trkpt lat="44.72511" lon="5.87332">
        <ele>1364.482</ele>
        <time>2014-07-17T13:29:12Z</time>
      </trkpt>
      <trkpt lat="44.72511" lon="5.87339">
        <ele>1362.689</ele>
        <time>2014-07-17T13:29:17Z</time>
      </trkpt>
      <trkpt lat="44.72506" lon="5.87347">
        <ele>1360.304</ele>
        <time>2014-07-17T13:29:24Z</time>
      </trkpt>
      <trkpt lat="44.72495" lon="5.87356">
        <ele>1356.917</ele>
        <time>2014-07-17T13:29:36Z</time>
      </trkpt>
      <trkpt lat="44.72493" lon="5.87358">
        <ele>1356.58</ele>
        <time>2014-07-17T13:29:38Z</time>
      </trkpt>
      <trkpt lat="44.72474" lon="5.87365">
        <ele>1353.178</ele>
        <time>2014-07-17T13:29:55Z</time>
      </trkpt>
      <trkpt lat="44.72465" lon="5.87378">
        <ele>1350.016</ele>
        <time>2014-07-17T13:30:07Z</time>
      </trkpt>
      <trkpt lat="44.72462" lon="5.8738">
        <ele>1349.35</ele>
        <time>2014-07-17T13:30:11Z</time>
      </trkpt>
      <trkpt lat="44.72458" lon="5.87384">
        <ele>1347.738</ele>
        <time>2014-07-17T13:30:16Z</time>
      </trkpt>
      <trkpt lat="44.72447" lon="5.87394">
        <ele>1344.359</ele>
        <time>2014-07-17T13:30:30Z</time>
      </trkpt>
      <trkpt lat="44.72444" lon="5.874">
        <ele>1343.651</ele>
        <time>2014-07-17T13:30:34Z</time>
      </trkpt>
      <trkpt lat="44.7244" lon="5.87402">
        <ele>1342.772</ele>
        <time>2014-07-17T13:30:37Z</time>
      </trkpt>
      <trkpt lat="44.72432" lon="5.87409">
        <ele>1340.876</ele>
        <time>2014-07-17T13:30:45Z</time>
      </trkpt>
      <trkpt lat="44.72429" lon="5.87413">
        <ele>1339.296</ele>
        <time>2014-07-17T13:30:51Z</time>
      </trkpt>
      <trkpt lat="44.72425" lon="5.87426">
        <ele>1336.265</ele>
        <time>2014-07-17T13:31:02Z</time>
      </trkpt>
      <trkpt lat="44.72423" lon="5.87432">
        <ele>1335.071</ele>
        <time>2014-07-17T13:31:07Z</time>
      </trkpt>
      <trkpt lat="44.72422" lon="5.87435">
        <ele>1335.127</ele>
        <time>2014-07-17T13:31:10Z</time>
      </trkpt>
      <trkpt lat="44.72415" lon="5.87441">
        <ele>1333.034</ele>
        <time>2014-07-17T13:31:18Z</time>
      </trkpt>
      <trkpt lat="44.72412" lon="5.87449">
        <ele>1332.528</ele>
        <time>2014-07-17T13:31:21Z</time>
      </trkpt>
      <trkpt lat="44.72403" lon="5.8745">
        <ele>1330.999</ele>
        <time>2014-07-17T13:31:31Z</time>
      </trkpt>
      <trkpt lat="44.72385" lon="5.87465">
        <ele>1328.482</ele>
        <time>2014-07-17T13:31:50Z</time>
      </trkpt>
      <trkpt lat="44.72372" lon="5.87473">
        <ele>1326.206</ele>
        <time>2014-07-17T13:32:07Z</time>
      </trkpt>
      <trkpt lat="44.72359" lon="5.87485">
        <ele>1323.781</ele>
        <time>2014-07-17T13:32:26Z</time>
      </trkpt>
      <trkpt lat="44.72351" lon="5.87495">
        <ele>1320.737</ele>
        <time>2014-07-17T13:32:37Z</time>
      </trkpt>
      <trkpt lat="44.72344" lon="5.87504">
        <ele>1319.366</ele>
        <time>2014-07-17T13:32:44Z</time>
      </trkpt>
      <trkpt lat="44.72331" lon="5.8751">
        <ele>1317.981</ele>
        <time>2014-07-17T13:32:57Z</time>
      </trkpt>
      <trkpt lat="44.72328" lon="5.87512">
        <ele>1317.5</ele>
        <time>2014-07-17T13:33:01Z</time>
      </trkpt>
      <trkpt lat="44.72325" lon="5.87516">
        <ele>1316.057</ele>
        <time>2014-07-17T13:33:07Z</time>
      </trkpt>
      <trkpt lat="44.72321" lon="5.87518">
        <ele>1314.943</ele>
        <time>2014-07-17T13:33:12Z</time>
      </trkpt>
      <trkpt lat="44.72312" lon="5.87527">
        <ele>1313.633</ele>
        <time>2014-07-17T13:33:22Z</time>
      </trkpt>
      <trkpt lat="44.72301" lon="5.87539">
        <ele>1311.482</ele>
        <time>2014-07-17T13:33:35Z</time>
      </trkpt>
      <trkpt lat="44.72298" lon="5.87546">
        <ele>1311.046</ele>
        <time>2014-07-17T13:33:39Z</time>
      </trkpt>
      <trkpt lat="44.72281" lon="5.87566">
        <ele>1308.003</ele>
        <time>2014-07-17T13:33:59Z</time>
      </trkpt>
      <trkpt lat="44.72279" lon="5.87569">
        <ele>1307.469</ele>
        <time>2014-07-17T13:34:02Z</time>
      </trkpt>
      <trkpt lat="44.72262" lon="5.87581">
        <ele>1304.734</ele>
        <time>2014-07-17T13:34:19Z</time>
      </trkpt>
      <trkpt lat="44.72257" lon="5.87588">
        <ele>1304.045</ele>
        <time>2014-07-17T13:34:26Z</time>
      </trkpt>
      <trkpt lat="44.72252" lon="5.87607">
        <ele>1300.909</ele>
        <time>2014-07-17T13:34:37Z</time>
      </trkpt>
      <trkpt lat="44.72248" lon="5.87615">
        <ele>1299.361</ele>
        <time>2014-07-17T13:34:45Z</time>
      </trkpt>
      <trkpt lat="44.72247" lon="5.87618">
        <ele>1298.097</ele>
        <time>2014-07-17T13:34:47Z</time>
      </trkpt>
      <trkpt lat="44.72241" lon="5.87625">
        <ele>1297.083</ele>
        <time>2014-07-17T13:34:54Z</time>
      </trkpt>
      <trkpt lat="44.7224" lon="5.87631">
        <ele>1295.99</ele>
        <time>2014-07-17T13:34:58Z</time>
      </trkpt>
      <trkpt lat="44.72229" lon="5.87648">
        <ele>1293.379</ele>
        <time>2014-07-17T13:35:13Z</time>
      </trkpt>
      <trkpt lat="44.72226" lon="5.87659">
        <ele>1291.587</ele>
        <time>2014-07-17T13:35:21Z</time>
      </trkpt>
      <trkpt lat="44.72215" lon="5.87681">
        <ele>1288.527</ele>
        <time>2014-07-17T13:35:38Z</time>
      </trkpt>
      <trkpt lat="44.72205" lon="5.87703">
        <ele>1285.213</ele>
        <time>2014-07-17T13:35:54Z</time>
      </trkpt>
      <trkpt lat="44.72191" lon="5.87713">
        <ele>1284.023</ele>
        <time>2014-07-17T13:36:08Z</time>
      </trkpt>
      <trkpt lat="44.7218" lon="5.8773">
        <ele>1280.843</ele>
        <time>2014-07-17T13:36:22Z</time>
      </trkpt>
      <trkpt lat="44.72174" lon="5.87744">
        <ele>1278.658</ele>
        <time>2014-07-17T13:36:32Z</time>
      </trkpt>
      <trkpt lat="44.72166" lon="5.87753">
        <ele>1277.241</ele>
        <time>2014-07-17T13:36:41Z</time>
      </trkpt>
      <trkpt lat="44.72161" lon="5.87754">
        <ele>1276.806</ele>
        <time>2014-07-17T13:36:46Z</time>
      </trkpt>
      <trkpt lat="44.72155" lon="5.87759">
        <ele>1276.623</ele>
        <time>2014-07-17T13:36:52Z</time>
      </trkpt>
      <trkpt lat="44.72147" lon="5.8778">
        <ele>1273.34</ele>
        <time>2014-07-17T13:37:08Z</time>
      </trkpt>
      <trkpt lat="44.72141" lon="5.87795">
        <ele>1270.049</ele>
        <time>2014-07-17T13:37:20Z</time>
      </trkpt>
      <trkpt lat="44.72135" lon="5.87813">
        <ele>1266.895</ele>
        <time>2014-07-17T13:37:33Z</time>
      </trkpt>
      <trkpt lat="44.72136" lon="5.87819">
        <ele>1265.409</ele>
        <time>2014-07-17T13:37:37Z</time>
      </trkpt>
      <trkpt lat="44.72133" lon="5.87835">
        <ele>1263.147</ele>
        <time>2014-07-17T13:37:47Z</time>
      </trkpt>
      <trkpt lat="44.72133" lon="5.87838">
        <ele>1262.708</ele>
        <time>2014-07-17T13:37:49Z</time>
      </trkpt>
      <trkpt lat="44.72129" lon="5.87859">
        <ele>1258.569</ele>
        <time>2014-07-17T13:38:04Z</time>
      </trkpt>
      <trkpt lat="44.72127" lon="5.87872">
        <ele>1256.06</ele>
        <time>2014-07-17T13:38:14Z</time>
      </trkpt>
      <trkpt lat="44.72123" lon="5.8789">
        <ele>1252.919</ele>
        <time>2014-07-17T13:38:26Z</time>
      </trkpt>
      <trkpt lat="44.72124" lon="5.87893">
        <ele>1252.298</ele>
        <time>2014-07-17T13:38:28Z</time>
      </trkpt>
      <trkpt lat="44.72126" lon="5.87914">
        <ele>1248.649</ele>
        <time>2014-07-17T13:38:41Z</time>
      </trkpt>
      <trkpt lat="44.72121" lon="5.87929">
        <ele>1245.502</ele>
        <time>2014-07-17T13:38:52Z</time>
      </trkpt>
      <trkpt lat="44.72118" lon="5.87941">
        <ele>1241.616</ele>
        <time>2014-07-17T13:39:03Z</time>
      </trkpt>
      <trkpt lat="44.7211" lon="5.87953">
        <ele>1238.613</ele>
        <time>2014-07-17T13:39:13Z</time>
      </trkpt>
      <trkpt lat="44.72104" lon="5.87964">
        <ele>1235.525</ele>
        <time>2014-07-17T13:39:24Z</time>
      </trkpt>
      <trkpt lat="44.7209" lon="5.87981">
        <ele>1232.018</ele>
        <time>2014-07-17T13:39:38Z</time>
      </trkpt>
      <trkpt lat="44.72073" lon="5.87993">
        <ele>1229.495</ele>
        <time>2014-07-17T13:39:53Z</time>
      </trkpt>
      <trkpt lat="44.72065" lon="5.87999">
        <ele>1228.806</ele>
        <time>2014-07-17T13:40:02Z</time>
      </trkpt>
      <trkpt lat="44.72051" lon="5.88015">
        <ele>1226.314</ele>
        <time>2014-07-17T13:40:18Z</time>
      </trkpt>
      <trkpt lat="44.72042" lon="5.88031">
        <ele>1225.614</ele>
        <time>2014-07-17T13:40:32Z</time>
      </trkpt>
      <trkpt lat="44.72032" lon="5.88028">
        <ele>1226.396</ele>
        <time>2014-07-17T13:40:45Z</time>
      </trkpt>
      <trkpt lat="44.72029" lon="5.8802">
        <ele>1226.821</ele>
        <time>2014-07-17T13:41:05Z</time>
      </trkpt>
      <trkpt lat="44.72027" lon="5.88017">
        <ele>1223.818</ele>
        <time>2014-07-17T13:42:33Z</time>
      </trkpt>
    </trkseg>
  </trk>
</gpx>